Ultimate Genuine Original Atlas Copco Heat Exchanger Catalog China Supplier

China Supplier for Air Compressors Heat Exchanger

Today, CPMC China would like to present you with the Ultimate Genuine Original Atlas Copco Heat Exchanger Catalog by China Supplier for your Air Compressors. Heat Exchangers are very Important for your Compressor. Atlas Copco users used genuine Original Heat Exchangers for compressor maintenance to ensure performance and reliability. Genuine original Heat Exchangers guarantee system integrity for outstanding performance. As China’s Leading Supplier of Air Compressors and Spare Parts, CPMC China is committed to providing customers with GENUINE original air compressors Heat exchangers at good prices.  If you cannot find your Air Compressors part number, please provide a picture of your air compressor’s nameplate, series number, etc.

Maintenance of Atlas Copco Heat Exchanger

When oil, grease, dust, and dirt accumulate on the surface of the Atlas Copco cooler, the heat exchange effect of the cooler will be weakened, resulting in excessive exhaust temperature. Every half month, use a vacuum cleaner, cleaning fluid or low-pressure compressed air to clean the outer surface of the Atlas Copco cooler. When the ambient temperature is low or the humidity is high, the condensed water of the after cooler should be discharged frequently. When the temperature is lower than 0 °C, the condensed water in the after cooler must be drained every day.

Ultimate Genuine Original Atlas Copco Heat Exchanger Catalog

Parts Number       Manufacturer      Discription  Parts Number      Parts Number     
1091631931 Atlas Copco Heat exchangers 1091-6319-31 1091 6319 31
1091631932 Atlas Copco Heat exchangers 1091-6319-32 1091 6319 32
1091631933 Atlas Copco Heat exchangers 1091-6319-33 1091 6319 33
1202164180 Atlas Copco Heat exchangers 1202-1641-80 1202 1641 80
1202169680 Atlas Copco Heat exchangers 1202-1696-80 1202 1696 80
1202362000 Atlas Copco Heat exchangers 1202-3620-00 1202 3620 00
1202411800 Atlas Copco Heat exchangers 1202-4118-00 1202 4118 00
1202447083 Atlas Copco Heat exchangers 1202-4470-83 1202 4470 83
1202447283 Atlas Copco Heat exchangers 1202-4472-83 1202 4472 83
1202523502 Atlas Copco Heat exchangers 1202-5235-02 1202 5235 02
1202523503 Atlas Copco Heat exchangers 1202-5235-03 1202 5235 03
1202526301 Atlas Copco Heat exchangers 1202-5263-01 1202 5263 01
1202526302 Atlas Copco Heat exchangers 1202-5263-02 1202 5263 02
1202526303 Atlas Copco Heat exchangers 1202-5263-03 1202 5263 03
1202604500 Atlas Copco Heat exchangers 1202-6045-00 1202 6045 00
1202605900 Atlas Copco Heat exchangers 1202-6059-00 1202 6059 00
1202605901 Atlas Copco Heat exchangers 1202-6059-01 1202 6059 01
1202613080 Atlas Copco Heat exchangers 1202-6130-80 1202 6130 80
1202650180 Atlas Copco Heat exchangers 1202-6501-80 1202 6501 80
1202660100 Atlas Copco Heat exchangers 1202-6601-00 1202 6601 00
1202670880 Atlas Copco Heat exchangers 1202-6708-80 1202 6708 80
1202674800 Atlas Copco Heat exchangers 1202-6748-00 1202 6748 00
1202706800 Atlas Copco Heat exchangers 1202-7068-00 1202 7068 00
1202721300 Atlas Copco Heat exchangers 1202-7213-00 1202 7213 00
1202772200 Atlas Copco Heat exchangers 1202-7722-00 1202 7722 00
1202777600 Atlas Copco Heat exchangers 1202-7776-00 1202 7776 00
1202811100 Atlas Copco Heat exchangers 1202-8111-00 1202 8111 00
1202811101 Atlas Copco Heat exchangers 1202-8111-01 1202 8111 01
1202812583 Atlas Copco Heat exchangers 1202-8125-83 1202 8125 83
1202812600 Atlas Copco Heat exchangers 1202-8126-00 1202 8126 00
1202812700 Atlas Copco Heat exchangers 1202-8127-00 1202 8127 00
1202845000 Atlas Copco Heat exchangers 1202-8450-00 1202 8450 00
1202845080 Atlas Copco Heat exchangers 1202-8450-80 1202 8450 80
1202866500 Atlas Copco Heat exchangers 1202-8665-00 1202 8665 00
1202890300 Atlas Copco Heat exchangers 1202-8903-00 1202 8903 00
1202890400 Atlas Copco Heat exchangers 1202-8904-00 1202 8904 00
1202904900 Atlas Copco Heat exchangers 1202-9049-00 1202 9049 00
1202933882 Atlas Copco Heat exchangers 1202-9338-82 1202 9338 82
1202970080 Atlas Copco Heat exchangers 1202-9700-80 1202 9700 80
1202973500 Atlas Copco Heat exchangers 1202-9735-00 1202 9735 00
1202973800 Atlas Copco Heat exchangers 1202-9738-00 1202 9738 00
1202973900 Atlas Copco Heat exchangers 1202-9739-00 1202 9739 00
1202984988 Atlas Copco Heat exchangers 1202-9849-88 1202 9849 88
1202985088 Atlas Copco Heat exchangers 1202-9850-88 1202 9850 88
1202985288 Atlas Copco Heat exchangers 1202-9852-88 1202 9852 88
1202985388 Atlas Copco Heat exchangers 1202-9853-88 1202 9853 88
1202985480 Atlas Copco Heat exchangers 1202-9854-80 1202 9854 80
1202985486 Atlas Copco Heat exchangers 1202-9854-86 1202 9854 86
1202985488 Atlas Copco Heat exchangers 1202-9854-88 1202 9854 88
1202985580 Atlas Copco Heat exchangers 1202-9855-80 1202 9855 80
1202985586 Atlas Copco Heat exchangers 1202-9855-86 1202 9855 86
1202985588 Atlas Copco Heat exchangers 1202-9855-88 1202 9855 88
1291000120 Atlas Copco Heat exchangers 1291-0001-20 1291 0001 20
1291000155 Atlas Copco Heat exchangers 1291-0001-55 1291 0001 55
1291000156 Atlas Copco Heat exchangers 1291-0001-56 1291 0001 56
1291000277 Atlas Copco Heat exchangers 1291-0002-77 1291 0002 77
1291000278 Atlas Copco Heat exchangers 1291-0002-78 1291 0002 78
1291000279 Atlas Copco Heat exchangers 1291-0002-79 1291 0002 79
1291001572 Atlas Copco Heat exchangers 1291-0015-72 1291 0015 72
1291001574 Atlas Copco Heat exchangers 1291-0015-74 1291 0015 74
1291003163 Atlas Copco Heat exchangers 1291-0031-63 1291 0031 63
1291003164 Atlas Copco Heat exchangers 1291-0031-64 1291 0031 64
1291005633 Atlas Copco Heat exchangers 1291-0056-33 1291 0056 33
1291600714 Atlas Copco Heat exchangers 1291-6007-14 1291 6007 14
1320779410 Atlas Copco Heat exchangers 1320-7794-10 1320 7794 10
1420081337 Atlas Copco Heat exchangers 1420-0813-37 1420 0813 37
1420081543 Atlas Copco Heat exchangers 1420-0815-43 1420 0815 43
1420081544 Atlas Copco Heat exchangers 1420-0815-44 1420 0815 44
1420081889 Atlas Copco Heat exchangers 1420-0818-89 1420 0818 89
1420081890 Atlas Copco Heat exchangers 1420-0818-90 1420 0818 90
1420081891 Atlas Copco Heat exchangers 1420-0818-91 1420 0818 91
1420081895 Atlas Copco Heat exchangers 1420-0818-95 1420 0818 95
1420082073 Atlas Copco Heat exchangers 1420-0820-73 1420 0820 73
1503286100 Atlas Copco Heat exchangers 1503-2861-00 1503 2861 00
1503286200 Atlas Copco Heat exchangers 1503-2862-00 1503 2862 00
1503286300 Atlas Copco Heat exchangers 1503-2863-00 1503 2863 00
1503286400 Atlas Copco Heat exchangers 1503-2864-00 1503 2864 00
1503288400 Atlas Copco Heat exchangers 1503-2884-00 1503 2884 00
1503288500 Atlas Copco Heat exchangers 1503-2885-00 1503 2885 00
1503312600 Atlas Copco Heat exchangers 1503-3126-00 1503 3126 00
1503313400 Atlas Copco Heat exchangers 1503-3134-00 1503 3134 00
1503329500 Atlas Copco Heat exchangers 1503-3295-00 1503 3295 00
1503875000 Atlas Copco Heat exchangers 1503-8750-00 1503 8750 00
1504221234 Atlas Copco Heat exchangers 1504-2212-34 1504 2212 34
1504221235 Atlas Copco Heat exchangers 1504-2212-35 1504 2212 35
1504221236 Atlas Copco Heat exchangers 1504-2212-36 1504 2212 36
1504221237 Atlas Copco Heat exchangers 1504-2212-37 1504 2212 37
1504221287 Atlas Copco Heat exchangers 1504-2212-87 1504 2212 87
1504221288 Atlas Copco Heat exchangers 1504-2212-88 1504 2212 88
1504221289 Atlas Copco Heat exchangers 1504-2212-89 1504 2212 89
1504221788 Atlas Copco Heat exchangers 1504-2217-88 1504 2217 88
1504221789 Atlas Copco Heat exchangers 1504-2217-89 1504 2217 89
1504221790 Atlas Copco Heat exchangers 1504-2217-90 1504 2217 90
1504221791 Atlas Copco Heat exchangers 1504-2217-91 1504 2217 91
1513046100 Atlas Copco Heat exchangers 1513-0461-00 1513 0461 00
1604002701 Atlas Copco Heat exchangers 1604-0027-01 1604 0027 01
1604002801 Atlas Copco Heat exchangers 1604-0028-01 1604 0028 01
1604002902 Atlas Copco Heat exchangers 1604-0029-02 1604 0029 02
1604052801 Atlas Copco Heat exchangers 1604-0528-01 1604 0528 01
1604062601 Atlas Copco Heat exchangers 1604-0626-01 1604 0626 01
1604075800 Atlas Copco Heat exchangers 1604-0758-00 1604 0758 00
1604083201 Atlas Copco Heat exchangers 1604-0832-01 1604 0832 01
1604134501 Atlas Copco Heat exchangers 1604-1345-01 1604 1345 01
1604145901 Atlas Copco Heat exchangers 1604-1459-01 1604 1459 01
1604160101 Atlas Copco Heat exchangers 1604-1601-01 1604 1601 01
1604160200 Atlas Copco Heat exchangers 1604-1602-00 1604 1602 00
1604160300 Atlas Copco Heat exchangers 1604-1603-00 1604 1603 00
1604160801 Atlas Copco Heat exchangers 1604-1608-01 1604 1608 01
1604178901 Atlas Copco Heat exchangers 1604-1789-01 1604 1789 01
1604182401 Atlas Copco Heat exchangers 1604-1824-01 1604 1824 01
1604204201 Atlas Copco Heat exchangers 1604-2042-01 1604 2042 01
1604213401 Atlas Copco Heat exchangers 1604-2134-01 1604 2134 01
1604240900 Atlas Copco Heat exchangers 1604-2409-00 1604 2409 00
1604249501 Atlas Copco Heat exchangers 1604-2495-01 1604 2495 01
1604249502 Atlas Copco Heat exchangers 1604-2495-02 1604 2495 02
1604267680 Atlas Copco Heat exchangers 1604-2676-80 1604 2676 80
1604267701 Atlas Copco Heat exchangers 1604-2677-01 1604 2677 01
1604267901 Atlas Copco Heat exchangers 1604-2679-01 1604 2679 01
1604267902 Atlas Copco Heat exchangers 1604-2679-02 1604 2679 02
1604267903 Atlas Copco Heat exchangers 1604-2679-03 1604 2679 03
1604268001 Atlas Copco Heat exchangers 1604-2680-01 1604 2680 01
1604268002 Atlas Copco Heat exchangers 1604-2680-02 1604 2680 02
1604292400 Atlas Copco Heat exchangers 1604-2924-00 1604 2924 00
1604295700 Atlas Copco Heat exchangers 1604-2957-00 1604 2957 00
1604335501 Atlas Copco Heat exchangers 1604-3355-01 1604 3355 01
1604335502 Atlas Copco Heat exchangers 1604-3355-02 1604 3355 02
1604337201 Atlas Copco Heat exchangers 1604-3372-01 1604 3372 01
1604337202 Atlas Copco Heat exchangers 1604-3372-02 1604 3372 02
1604370183 Atlas Copco Heat exchangers 1604-3701-83 1604 3701 83
1604396802 Atlas Copco Heat exchangers 1604-3968-02 1604 3968 02
1604396902 Atlas Copco Heat exchangers 1604-3969-02 1604 3969 02
1604407934 Atlas Copco Heat exchangers 1604-4079-34 1604 4079 34
1604408835 Atlas Copco Heat exchangers 1604-4088-35 1604 4088 35
1604411500 Atlas Copco Heat exchangers 1604-4115-00 1604 4115 00
1604411600 Atlas Copco Heat exchangers 1604-4116-00 1604 4116 00
1604411800 Atlas Copco Heat exchangers 1604-4118-00 1604 4118 00
1604435200 Atlas Copco Heat exchangers 1604-4352-00 1604 4352 00
1604444981 Atlas Copco Heat exchangers 1604-4449-81 1604 4449 81
1604445000 Atlas Copco Heat exchangers 1604-4450-00 1604 4450 00
1604448800 Atlas Copco Heat exchangers 1604-4488-00 1604 4488 00
1604474700 Atlas Copco Heat exchangers 1604-4747-00 1604 4747 00
1604474701 Atlas Copco Heat exchangers 1604-4747-01 1604 4747 01
1604474702 Atlas Copco Heat exchangers 1604-4747-02 1604 4747 02
1604514502 Atlas Copco Heat exchangers 1604-5145-02 1604 5145 02
1604518300 Atlas Copco Heat exchangers 1604-5183-00 1604 5183 00
1604518400 Atlas Copco Heat exchangers 1604-5184-00 1604 5184 00
1604540800 Atlas Copco Heat exchangers 1604-5408-00 1604 5408 00
1604547701 Atlas Copco Heat exchangers 1604-5477-01 1604 5477 01
1604547801 Atlas Copco Heat exchangers 1604-5478-01 1604 5478 01
1604558403 Atlas Copco Heat exchangers 1604-5584-03 1604 5584 03
1604573905 Atlas Copco Heat exchangers 1604-5739-05 1604 5739 05
1604603101 Atlas Copco Heat exchangers 1604-6031-01 1604 6031 01
1604603201 Atlas Copco Heat exchangers 1604-6032-01 1604 6032 01
1604624600 Atlas Copco Heat exchangers 1604-6246-00 1604 6246 00
1604638300 Atlas Copco Heat exchangers 1604-6383-00 1604 6383 00
1604653901 Atlas Copco Heat exchangers 1604-6539-01 1604 6539 01
1604653902 Atlas Copco Heat exchangers 1604-6539-02 1604 6539 02
1604661603 Atlas Copco Heat exchangers 1604-6616-03 1604 6616 03
1604738480 Atlas Copco Heat exchangers 1604-7384-80 1604 7384 80
1604770700 Atlas Copco Heat exchangers 1604-7707-00 1604 7707 00
1604912080 Atlas Copco Heat exchangers 1604-9120-80 1604 9120 80
1604929300 Atlas Copco Heat exchangers 1604-9293-00 1604 9293 00
1604929400 Atlas Copco Heat exchangers 1604-9294-00 1604 9294 00
1604934002 Atlas Copco Heat exchangers 1604-9340-02 1604 9340 02
1604934103 Atlas Copco Heat exchangers 1604-9341-03 1604 9341 03
1604991780 Atlas Copco Heat exchangers 1604-9917-80 1604 9917 80
1605109700 Atlas Copco Heat exchangers 1605-1097-00 1605 1097 00
1605259900 Atlas Copco Heat exchangers 1605-2599-00 1605 2599 00
1606012400 Atlas Copco Heat exchangers 1606-0124-00 1606 0124 00
1606072200 Atlas Copco Heat exchangers 1606-0722-00 1606 0722 00
1606072600 Atlas Copco Heat exchangers 1606-0726-00 1606 0726 00
1606135400 Atlas Copco Heat exchangers 1606-1354-00 1606 1354 00
1606138700 Atlas Copco Heat exchangers 1606-1387-00 1606 1387 00
1606150000 Atlas Copco Heat exchangers 1606-1500-00 1606 1500 00
1606168700 Atlas Copco Heat exchangers 1606-1687-00 1606 1687 00
1606175401 Atlas Copco Heat exchangers 1606-1754-01 1606 1754 01
1606175402 Atlas Copco Heat exchangers 1606-1754-02 1606 1754 02
1606205100 Atlas Copco Heat exchangers 1606-2051-00 1606 2051 00
1606206201 Atlas Copco Heat exchangers 1606-2062-01 1606 2062 01
1606206202 Atlas Copco Heat exchangers 1606-2062-02 1606 2062 02
1606210801 Atlas Copco Heat exchangers 1606-2108-01 1606 2108 01
1606210900 Atlas Copco Heat exchangers 1606-2109-00 1606 2109 00
1606256001 Atlas Copco Heat exchangers 1606-2560-01 1606 2560 01
1606256002 Atlas Copco Heat exchangers 1606-2560-02 1606 2560 02
1606256100 Atlas Copco Heat exchangers 1606-2561-00 1606 2561 00
1606256200 Atlas Copco Heat exchangers 1606-2562-00 1606 2562 00
1606266601 Atlas Copco Heat exchangers 1606-2666-01 1606 2666 01
1606266701 Atlas Copco Heat exchangers 1606-2667-01 1606 2667 01
1606331889 Atlas Copco Heat exchangers 1606-3318-89 1606 3318 89
1606381200 Atlas Copco Heat exchangers 1606-3812-00 1606 3812 00
1606381500 Atlas Copco Heat exchangers 1606-3815-00 1606 3815 00
1606406401 Atlas Copco Heat exchangers 1606-4064-01 1606 4064 01
1606510601 Atlas Copco Heat exchangers 1606-5106-01 1606 5106 01
1606510603 Atlas Copco Heat exchangers 1606-5106-03 1606 5106 03
1606523000 Atlas Copco Heat exchangers 1606-5230-00 1606 5230 00
1606523100 Atlas Copco Heat exchangers 1606-5231-00 1606 5231 00
1606523200 Atlas Copco Heat exchangers 1606-5232-00 1606 5232 00
1606523300 Atlas Copco Heat exchangers 1606-5233-00 1606 5233 00
1606523400 Atlas Copco Heat exchangers 1606-5234-00 1606 5234 00
1606523500 Atlas Copco Heat exchangers 1606-5235-00 1606 5235 00
1606523600 Atlas Copco Heat exchangers 1606-5236-00 1606 5236 00
1606523700 Atlas Copco Heat exchangers 1606-5237-00 1606 5237 00
1606542801 Atlas Copco Heat exchangers 1606-5428-01 1606 5428 01
1606542803 Atlas Copco Heat exchangers 1606-5428-03 1606 5428 03
1606542804 Atlas Copco Heat exchangers 1606-5428-04 1606 5428 04
1606542821 Atlas Copco Heat exchangers 1606-5428-21 1606 5428 21
1606542829 Atlas Copco Heat exchangers 1606-5428-29 1606 5428 29
1606542831 Atlas Copco Heat exchangers 1606-5428-31 1606 5428 31
1606542900 Atlas Copco Heat exchangers 1606-5429-00 1606 5429 00
1606644000 Atlas Copco Heat exchangers 1606-6440-00 1606 6440 00
1606644100 Atlas Copco Heat exchangers 1606-6441-00 1606 6441 00
1606651200 Atlas Copco Heat exchangers 1606-6512-00 1606 6512 00
1606659700 Atlas Copco Heat exchangers 1606-6597-00 1606 6597 00
1606659800 Atlas Copco Heat exchangers 1606-6598-00 1606 6598 00
1606659900 Atlas Copco Heat exchangers 1606-6599-00 1606 6599 00
1606703701 Atlas Copco Heat exchangers 1606-7037-01 1606 7037 01
1606703702 Atlas Copco Heat exchangers 1606-7037-02 1606 7037 02
1606703703 Atlas Copco Heat exchangers 1606-7037-03 1606 7037 03
1606703704 Atlas Copco Heat exchangers 1606-7037-04 1606 7037 04
1606703780 Atlas Copco Heat exchangers 1606-7037-80 1606 7037 80
1606801700 Atlas Copco Heat exchangers 1606-8017-00 1606 8017 00
1606801800 Atlas Copco Heat exchangers 1606-8018-00 1606 8018 00
1606871400 Atlas Copco Heat exchangers 1606-8714-00 1606 8714 00
1610174400 Atlas Copco Heat exchangers 1610-1744-00 1610 1744 00
1610174500 Atlas Copco Heat exchangers 1610-1745-00 1610 1745 00
1610288800 Atlas Copco Heat exchangers 1610-2888-00 1610 2888 00
1610291100 Atlas Copco Heat exchangers 1610-2911-00 1610 2911 00
1610359300 Atlas Copco Heat exchangers 1610-3593-00 1610 3593 00
1610483100 Atlas Copco Heat exchangers 1610-4831-00 1610 4831 00
1610483200 Atlas Copco Heat exchangers 1610-4832-00 1610 4832 00
1610483300 Atlas Copco Heat exchangers 1610-4833-00 1610 4833 00
1610582900 Atlas Copco Heat exchangers 1610-5829-00 1610 5829 00
1610583000 Atlas Copco Heat exchangers 1610-5830-00 1610 5830 00
1610583100 Atlas Copco Heat exchangers 1610-5831-00 1610 5831 00
1610624101 Atlas Copco Heat exchangers 1610-6241-01 1610 6241 01
1610624401 Atlas Copco Heat exchangers 1610-6244-01 1610 6244 01
1610626201 Atlas Copco Heat exchangers 1610-6262-01 1610 6262 01
1610626202 Atlas Copco Heat exchangers 1610-6262-02 1610 6262 02
1610626203 Atlas Copco Heat exchangers 1610-6262-03 1610 6262 03
1610626204 Atlas Copco Heat exchangers 1610-6262-04 1610 6262 04
1610723900 Atlas Copco Heat exchangers 1610-7239-00 1610 7239 00
1610742300 Atlas Copco Heat exchangers 1610-7423-00 1610 7423 00
1610785500 Atlas Copco Heat exchangers 1610-7855-00 1610 7855 00
1610792200 Atlas Copco Heat exchangers 1610-7922-00 1610 7922 00
1610798102 Atlas Copco Heat exchangers 1610-7981-02 1610 7981 02
1610798202 Atlas Copco Heat exchangers 1610-7982-02 1610 7982 02
1610804701 Atlas Copco Heat exchangers 1610-8047-01 1610 8047 01
1610804703 Atlas Copco Heat exchangers 1610-8047-03 1610 8047 03
1610825900 Atlas Copco Heat exchangers 1610-8259-00 1610 8259 00
1610880300 Atlas Copco Heat exchangers 1610-8803-00 1610 8803 00
1610880400 Atlas Copco Heat exchangers 1610-8804-00 1610 8804 00
1610924400 Atlas Copco Heat exchangers 1610-9244-00 1610 9244 00
1610924500 Atlas Copco Heat exchangers 1610-9245-00 1610 9245 00
1610989000 Atlas Copco Heat exchangers 1610-9890-00 1610 9890 00
1611874174 Atlas Copco Heat exchangers 1611-8741-74 1611 8741 74
1612352601 Atlas Copco Heat exchangers 1612-3526-01 1612 3526 01
1612548000 Atlas Copco Heat exchangers 1612-5480-00 1612 5480 00
1612997500 Atlas Copco Heat exchangers 1612-9975-00 1612 9975 00
1613421100 Atlas Copco Heat exchangers 1613-4211-00 1613 4211 00
1613546881 Atlas Copco Heat exchangers 1613-5468-81 1613 5468 81
1613546888 Atlas Copco Heat exchangers 1613-5468-88 1613 5468 88
1613546988 Atlas Copco Heat exchangers 1613-5469-88 1613 5469 88
1613547080 Atlas Copco Heat exchangers 1613-5470-80 1613 5470 80
1613547081 Atlas Copco Heat exchangers 1613-5470-81 1613 5470 81
1613547086 Atlas Copco Heat exchangers 1613-5470-86 1613 5470 86
1613547088 Atlas Copco Heat exchangers 1613-5470-88 1613 5470 88
1613547188 Atlas Copco Heat exchangers 1613-5471-88 1613 5471 88
1613562500 Atlas Copco Heat exchangers 1613-5625-00 1613 5625 00
1613563100 Atlas Copco Heat exchangers 1613-5631-00 1613 5631 00
1613679200 Atlas Copco Heat exchangers 1613-6792-00 1613 6792 00
1613688600 Atlas Copco Heat exchangers 1613-6886-00 1613 6886 00
1613688700 Atlas Copco Heat exchangers 1613-6887-00 1613 6887 00
1613688800 Atlas Copco Heat exchangers 1613-6888-00 1613 6888 00
1613688900 Atlas Copco Heat exchangers 1613-6889-00 1613 6889 00
1613702288 Atlas Copco Heat exchangers 1613-7022-88 1613 7022 88
1613702300 Atlas Copco Heat exchangers 1613-7023-00 1613 7023 00
1613727300 Atlas Copco Heat exchangers 1613-7273-00 1613 7273 00
1613733600 Atlas Copco Heat exchangers 1613-7336-00 1613 7336 00
1613733602 Atlas Copco Heat exchangers 1613-7336-02 1613 7336 02
1613737300 Atlas Copco Heat exchangers 1613-7373-00 1613 7373 00
1613737301 Atlas Copco Heat exchangers 1613-7373-01 1613 7373 01
1613782201 Atlas Copco Heat exchangers 1613-7822-01 1613 7822 01
1613782202 Atlas Copco Heat exchangers 1613-7822-02 1613 7822 02
1613782203 Atlas Copco Heat exchangers 1613-7822-03 1613 7822 03
1613830300 Atlas Copco Heat exchangers 1613-8303-00 1613 8303 00
1613830400 Atlas Copco Heat exchangers 1613-8304-00 1613 8304 00
1613836401 Atlas Copco Heat exchangers 1613-8364-01 1613 8364 01
1613836402 Atlas Copco Heat exchangers 1613-8364-02 1613 8364 02
1613836403 Atlas Copco Heat exchangers 1613-8364-03 1613 8364 03
1613836501 Atlas Copco Heat exchangers 1613-8365-01 1613 8365 01
1613836502 Atlas Copco Heat exchangers 1613-8365-02 1613 8365 02
1613836503 Atlas Copco Heat exchangers 1613-8365-03 1613 8365 03
1613836602 Atlas Copco Heat exchangers 1613-8366-02 1613 8366 02
1613836603 Atlas Copco Heat exchangers 1613-8366-03 1613 8366 03
1613874488 Atlas Copco Heat exchangers 1613-8744-88 1613 8744 88
1613875086 Atlas Copco Heat exchangers 1613-8750-86 1613 8750 86
1613875088 Atlas Copco Heat exchangers 1613-8750-88 1613 8750 88
1613903500 Atlas Copco Heat exchangers 1613-9035-00 1613 9035 00
1613914500 Atlas Copco Heat exchangers 1613-9145-00 1613 9145 00
1613914600 Atlas Copco Heat exchangers 1613-9146-00 1613 9146 00
1613927000 Atlas Copco Heat exchangers 1613-9270-00 1613 9270 00
1613945100 Atlas Copco Heat exchangers 1613-9451-00 1613 9451 00
1613950700 Atlas Copco Heat exchangers 1613-9507-00 1613 9507 00
1613950701 Atlas Copco Heat exchangers 1613-9507-01 1613 9507 01
1613950800 Atlas Copco Heat exchangers 1613-9508-00 1613 9508 00
1613950801 Atlas Copco Heat exchangers 1613-9508-01 1613 9508 01
1613950900 Atlas Copco Heat exchangers 1613-9509-00 1613 9509 00
1613950902 Atlas Copco Heat exchangers 1613-9509-02 1613 9509 02
1613951000 Atlas Copco Heat exchangers 1613-9510-00 1613 9510 00
1613951002 Atlas Copco Heat exchangers 1613-9510-02 1613 9510 02
1613951100 Atlas Copco Heat exchangers 1613-9511-00 1613 9511 00
1613951200 Atlas Copco Heat exchangers 1613-9512-00 1613 9512 00
1613951201 Atlas Copco Heat exchangers 1613-9512-01 1613 9512 01
1613973180 Atlas Copco Heat exchangers 1613-9731-80 1613 9731 80
1613990900 Atlas Copco Heat exchangers 1613-9909-00 1613 9909 00
1613990901 Atlas Copco Heat exchangers 1613-9909-01 1613 9909 01
1613991000 Atlas Copco Heat exchangers 1613-9910-00 1613 9910 00
1613991001 Atlas Copco Heat exchangers 1613-9910-01 1613 9910 01
1614641580 Atlas Copco Heat exchangers 1614-6415-80 1614 6415 80
1614643700 Atlas Copco Heat exchangers 1614-6437-00 1614 6437 00
1614667300 Atlas Copco Heat exchangers 1614-6673-00 1614 6673 00
1614675600 Atlas Copco Heat exchangers 1614-6756-00 1614 6756 00
1614677400 Atlas Copco Heat exchangers 1614-6774-00 1614 6774 00
1614678400 Atlas Copco Heat exchangers 1614-6784-00 1614 6784 00
1614697800 Atlas Copco Heat exchangers 1614-6978-00 1614 6978 00
1614698000 Atlas Copco Heat exchangers 1614-6980-00 1614 6980 00
1614705300 Atlas Copco Heat exchangers 1614-7053-00 1614 7053 00
1614753200 Atlas Copco Heat exchangers 1614-7532-00 1614 7532 00
1614762200 Atlas Copco Heat exchangers 1614-7622-00 1614 7622 00
1614762300 Atlas Copco Heat exchangers 1614-7623-00 1614 7623 00
1614780206 Atlas Copco Heat exchangers 1614-7802-06 1614 7802 06
1614780806 Atlas Copco Heat exchangers 1614-7808-06 1614 7808 06
1614783306 Atlas Copco Heat exchangers 1614-7833-06 1614 7833 06
1614784806 Atlas Copco Heat exchangers 1614-7848-06 1614 7848 06
1614806100 Atlas Copco Heat exchangers 1614-8061-00 1614 8061 00
1614806180 Atlas Copco Heat exchangers 1614-8061-80 1614 8061 80
1614825200 Atlas Copco Heat exchangers 1614-8252-00 1614 8252 00
1614826300 Atlas Copco Heat exchangers 1614-8263-00 1614 8263 00
1614862300 Atlas Copco Heat exchangers 1614-8623-00 1614 8623 00
1614862400 Atlas Copco Heat exchangers 1614-8624-00 1614 8624 00
1614862480 Atlas Copco Heat exchangers 1614-8624-80 1614 8624 80
1614866008 Atlas Copco Heat exchangers 1614-8660-08 1614 8660 08
1614866108 Atlas Copco Heat exchangers 1614-8661-08 1614 8661 08
1614866208 Atlas Copco Heat exchangers 1614-8662-08 1614 8662 08
1614866308 Atlas Copco Heat exchangers 1614-8663-08 1614 8663 08
1614866408 Atlas Copco Heat exchangers 1614-8664-08 1614 8664 08
1614866508 Atlas Copco Heat exchangers 1614-8665-08 1614 8665 08
1614866608 Atlas Copco Heat exchangers 1614-8666-08 1614 8666 08
1614866708 Atlas Copco Heat exchangers 1614-8667-08 1614 8667 08
1614866808 Atlas Copco Heat exchangers 1614-8668-08 1614 8668 08
1614886900 Atlas Copco Heat exchangers 1614-8869-00 1614 8869 00
1614893800 Atlas Copco Heat exchangers 1614-8938-00 1614 8938 00
1614893900 Atlas Copco Heat exchangers 1614-8939-00 1614 8939 00
1614893980 Atlas Copco Heat exchangers 1614-8939-80 1614 8939 80
1614896900 Atlas Copco Heat exchangers 1614-8969-00 1614 8969 00
1614918800 Atlas Copco Heat exchangers 1614-9188-00 1614 9188 00
1614918900 Atlas Copco Heat exchangers 1614-9189-00 1614 9189 00
1614920000 Atlas Copco Heat exchangers 1614-9200-00 1614 9200 00
1614920100 Atlas Copco Heat exchangers 1614-9201-00 1614 9201 00
1614936500 Atlas Copco Heat exchangers 1614-9365-00 1614 9365 00
1614954300 Atlas Copco Heat exchangers 1614-9543-00 1614 9543 00
1614958000 Atlas Copco Heat exchangers 1614-9580-00 1614 9580 00
1614958400 Atlas Copco Heat exchangers 1614-9584-00 1614 9584 00
1614958800 Atlas Copco Heat exchangers 1614-9588-00 1614 9588 00
1614958900 Atlas Copco Heat exchangers 1614-9589-00 1614 9589 00
1614959000 Atlas Copco Heat exchangers 1614-9590-00 1614 9590 00
1615438990 Atlas Copco Heat exchangers 1615-4389-90 1615 4389 90
1615462900 Atlas Copco Heat exchangers 1615-4629-00 1615 4629 00
1615464700 Atlas Copco Heat exchangers 1615-4647-00 1615 4647 00
1615557390 Atlas Copco Heat exchangers 1615-5573-90 1615 5573 90
1615562484 Atlas Copco Heat exchangers 1615-5624-84 1615 5624 84
1615602400 Atlas Copco Heat exchangers 1615-6024-00 1615 6024 00
1615662700 Atlas Copco Heat exchangers 1615-6627-00 1615 6627 00
1615674981 Atlas Copco Heat exchangers 1615-6749-81 1615 6749 81
1615675400 Atlas Copco Heat exchangers 1615-6754-00 1615 6754 00
1615696104 Atlas Copco Heat exchangers 1615-6961-04 1615 6961 04
1615714505 Atlas Copco Heat exchangers 1615-7145-05 1615 7145 05
1615739901 Atlas Copco Heat exchangers 1615-7399-01 1615 7399 01
1615744101 Atlas Copco Heat exchangers 1615-7441-01 1615 7441 01
1615744102 Atlas Copco Heat exchangers 1615-7441-02 1615 7441 02
1615768703 Atlas Copco Heat exchangers 1615-7687-03 1615 7687 03
1615775303 Atlas Copco Heat exchangers 1615-7753-03 1615 7753 03
1615858002 Atlas Copco Heat exchangers 1615-8580-02 1615 8580 02
1615907401 Atlas Copco Heat exchangers 1615-9074-01 1615 9074 01
1616502500 Atlas Copco Heat exchangers 1616-5025-00 1616 5025 00
1617506900 Atlas Copco Heat exchangers 1617-5069-00 1617 5069 00
1617513200 Atlas Copco Heat exchangers 1617-5132-00 1617 5132 00
1617515000 Atlas Copco Heat exchangers 1617-5150-00 1617 5150 00
1617516000 Atlas Copco Heat exchangers 1617-5160-00 1617 5160 00
1617516100 Atlas Copco Heat exchangers 1617-5161-00 1617 5161 00
1617526850 Atlas Copco Heat exchangers 1617-5268-50 1617 5268 50
1617526950 Atlas Copco Heat exchangers 1617-5269-50 1617 5269 50
1617533051 Atlas Copco Heat exchangers 1617-5330-51 1617 5330 51
1617599800 Atlas Copco Heat exchangers 1617-5998-00 1617 5998 00
1617771580 Atlas Copco Heat exchangers 1617-7715-80 1617 7715 80
1619650205 Atlas Copco Heat exchangers 1619-6502-05 1619 6502 05
1619751400 Atlas Copco Heat exchangers 1619-7514-00 1619 7514 00
1619751401 Atlas Copco Heat exchangers 1619-7514-01 1619 7514 01
1619754500 Atlas Copco Heat exchangers 1619-7545-00 1619 7545 00
1621001100 Atlas Copco Heat exchangers 1621-0011-00 1621 0011 00
1621018200 Atlas Copco Heat exchangers 1621-0182-00 1621 0182 00
1621018300 Atlas Copco Heat exchangers 1621-0183-00 1621 0183 00
1621044100 Atlas Copco Heat exchangers 1621-0441-00 1621 0441 00
1621047200 Atlas Copco Heat exchangers 1621-0472-00 1621 0472 00
1621055200 Atlas Copco Heat exchangers 1621-0552-00 1621 0552 00
1621057300 Atlas Copco Heat exchangers 1621-0573-00 1621 0573 00
1621073100 Atlas Copco Heat exchangers 1621-0731-00 1621 0731 00
1621073180 Atlas Copco Heat exchangers 1621-0731-80 1621 0731 80
1621073200 Atlas Copco Heat exchangers 1621-0732-00 1621 0732 00
1621075101 Atlas Copco Heat exchangers 1621-0751-01 1621 0751 01
1621075102 Atlas Copco Heat exchangers 1621-0751-02 1621 0751 02
1621082500 Atlas Copco Heat exchangers 1621-0825-00 1621 0825 00
1621082600 Atlas Copco Heat exchangers 1621-0826-00 1621 0826 00
1621106500 Atlas Copco Heat exchangers 1621-1065-00 1621 1065 00
1621106600 Atlas Copco Heat exchangers 1621-1066-00 1621 1066 00
1621106700 Atlas Copco Heat exchangers 1621-1067-00 1621 1067 00
1621106800 Atlas Copco Heat exchangers 1621-1068-00 1621 1068 00
1621106900 Atlas Copco Heat exchangers 1621-1069-00 1621 1069 00
1621107000 Atlas Copco Heat exchangers 1621-1070-00 1621 1070 00
1621120000 Atlas Copco Heat exchangers 1621-1200-00 1621 1200 00
1621120500 Atlas Copco Heat exchangers 1621-1205-00 1621 1205 00
1621149100 Atlas Copco Heat exchangers 1621-1491-00 1621 1491 00
1621179002 Atlas Copco Heat exchangers 1621-1790-02 1621 1790 02
1621179005 Atlas Copco Heat exchangers 1621-1790-05 1621 1790 05
1621179008 Atlas Copco Heat exchangers 1621-1790-08 1621 1790 08
1621203508 Atlas Copco Heat exchangers 1621-2035-08 1621 2035 08
1621205008 Atlas Copco Heat exchangers 1621-2050-08 1621 2050 08
1621208308 Atlas Copco Heat exchangers 1621-2083-08 1621 2083 08
1621209408 Atlas Copco Heat exchangers 1621-2094-08 1621 2094 08
1621216300 Atlas Copco Heat exchangers 1621-2163-00 1621 2163 00
1621216380 Atlas Copco Heat exchangers 1621-2163-80 1621 2163 80
1621216980 Atlas Copco Heat exchangers 1621-2169-80 1621 2169 80
1621220180 Atlas Copco Heat exchangers 1621-2201-80 1621 2201 80
1621228400 Atlas Copco Heat exchangers 1621-2284-00 1621 2284 00
1621228480 Atlas Copco Heat exchangers 1621-2284-80 1621 2284 80
1621230600 Atlas Copco Heat exchangers 1621-2306-00 1621 2306 00
1621245582 Atlas Copco Heat exchangers 1621-2455-82 1621 2455 82
1621258200 Atlas Copco Heat exchangers 1621-2582-00 1621 2582 00
1621260800 Atlas Copco Heat exchangers 1621-2608-00 1621 2608 00
1621260880 Atlas Copco Heat exchangers 1621-2608-80 1621 2608 80
1621267708 Atlas Copco Heat exchangers 1621-2677-08 1621 2677 08
1621271000 Atlas Copco Heat exchangers 1621-2710-00 1621 2710 00
1621271100 Atlas Copco Heat exchangers 1621-2711-00 1621 2711 00
1621279300 Atlas Copco Heat exchangers 1621-2793-00 1621 2793 00
1621279500 Atlas Copco Heat exchangers 1621-2795-00 1621 2795 00
1621279580 Atlas Copco Heat exchangers 1621-2795-80 1621 2795 80
1621279600 Atlas Copco Heat exchangers 1621-2796-00 1621 2796 00
1621279700 Atlas Copco Heat exchangers 1621-2797-00 1621 2797 00
1621279780 Atlas Copco Heat exchangers 1621-2797-80 1621 2797 80
1621279800 Atlas Copco Heat exchangers 1621-2798-00 1621 2798 00
1621315582 Atlas Copco Heat exchangers 1621-3155-82 1621 3155 82
1621315583 Atlas Copco Heat exchangers 1621-3155-83 1621 3155 83
1621324600 Atlas Copco Heat exchangers 1621-3246-00 1621 3246 00
1621324800 Atlas Copco Heat exchangers 1621-3248-00 1621 3248 00
1621324811 Atlas Copco Heat exchangers 1621-3248-11 1621 3248 11
1621324812 Atlas Copco Heat exchangers 1621-3248-12 1621 3248 12
1621324813 Atlas Copco Heat exchangers 1621-3248-13 1621 3248 13
1621324880 Atlas Copco Heat exchangers 1621-3248-80 1621 3248 80
1621324881 Atlas Copco Heat exchangers 1621-3248-81 1621 3248 81
1621334480 Atlas Copco Heat exchangers 1621-3344-80 1621 3344 80
1621336300 Atlas Copco Heat exchangers 1621-3363-00 1621 3363 00
1621337211 Atlas Copco Heat exchangers 1621-3372-11 1621 3372 11
1621337212 Atlas Copco Heat exchangers 1621-3372-12 1621 3372 12
1621337280 Atlas Copco Heat exchangers 1621-3372-80 1621 3372 80
1621434180 Atlas Copco Heat exchangers 1621-4341-80 1621 4341 80
1621485008 Atlas Copco Heat exchangers 1621-4850-08 1621 4850 08
1621490108 Atlas Copco Heat exchangers 1621-4901-08 1621 4901 08
1621495313 Atlas Copco Heat exchangers 1621-4953-13 1621 4953 13
1621536300 Atlas Copco Heat exchangers 1621-5363-00 1621 5363 00
1621536400 Atlas Copco Heat exchangers 1621-5364-00 1621 5364 00
1621536500 Atlas Copco Heat exchangers 1621-5365-00 1621 5365 00
1621540100 Atlas Copco Heat exchangers 1621-5401-00 1621 5401 00
1621540180 Atlas Copco Heat exchangers 1621-5401-80 1621 5401 80
1621553802 Atlas Copco Heat exchangers 1621-5538-02 1621 5538 02
1621553808 Atlas Copco Heat exchangers 1621-5538-08 1621 5538 08
1621600101 Atlas Copco Heat exchangers 1621-6001-01 1621 6001 01
1621600102 Atlas Copco Heat exchangers 1621-6001-02 1621 6001 02
1621600103 Atlas Copco Heat exchangers 1621-6001-03 1621 6001 03
1621618805 Atlas Copco Heat exchangers 1621-6188-05 1621 6188 05
1621700002 Atlas Copco Heat exchangers 1621-7000-02 1621 7000 02
1621700008 Atlas Copco Heat exchangers 1621-7000-08 1621 7000 08
1621700102 Atlas Copco Heat exchangers 1621-7001-02 1621 7001 02
1621700108 Atlas Copco Heat exchangers 1621-7001-08 1621 7001 08
1621700202 Atlas Copco Heat exchangers 1621-7002-02 1621 7002 02
1621700208 Atlas Copco Heat exchangers 1621-7002-08 1621 7002 08
1621700302 Atlas Copco Heat exchangers 1621-7003-02 1621 7003 02
1621700308 Atlas Copco Heat exchangers 1621-7003-08 1621 7003 08
1621700402 Atlas Copco Heat exchangers 1621-7004-02 1621 7004 02
1621700408 Atlas Copco Heat exchangers 1621-7004-08 1621 7004 08
1621700502 Atlas Copco Heat exchangers 1621-7005-02 1621 7005 02
1621700508 Atlas Copco Heat exchangers 1621-7005-08 1621 7005 08
1621700602 Atlas Copco Heat exchangers 1621-7006-02 1621 7006 02
1621700608 Atlas Copco Heat exchangers 1621-7006-08 1621 7006 08
1621700702 Atlas Copco Heat exchangers 1621-7007-02 1621 7007 02
1621700708 Atlas Copco Heat exchangers 1621-7007-08 1621 7007 08
1621700802 Atlas Copco Heat exchangers 1621-7008-02 1621 7008 02
1621700808 Atlas Copco Heat exchangers 1621-7008-08 1621 7008 08
1621700902 Atlas Copco Heat exchangers 1621-7009-02 1621 7009 02
1621700908 Atlas Copco Heat exchangers 1621-7009-08 1621 7009 08
1621724302 Atlas Copco Heat exchangers 1621-7243-02 1621 7243 02
1621724308 Atlas Copco Heat exchangers 1621-7243-08 1621 7243 08
1621724309 Atlas Copco Heat exchangers 1621-7243-09 1621 7243 09
1621724402 Atlas Copco Heat exchangers 1621-7244-02 1621 7244 02
1621724408 Atlas Copco Heat exchangers 1621-7244-08 1621 7244 08
1621724502 Atlas Copco Heat exchangers 1621-7245-02 1621 7245 02
1621724509 Atlas Copco Heat exchangers 1621-7245-09 1621 7245 09
1621724602 Atlas Copco Heat exchangers 1621-7246-02 1621 7246 02
1621724608 Atlas Copco Heat exchangers 1621-7246-08 1621 7246 08
1621724609 Atlas Copco Heat exchangers 1621-7246-09 1621 7246 09
1621724702 Atlas Copco Heat exchangers 1621-7247-02 1621 7247 02
1621724708 Atlas Copco Heat exchangers 1621-7247-08 1621 7247 08
1621724709 Atlas Copco Heat exchangers 1621-7247-09 1621 7247 09
1621725080 Atlas Copco Heat exchangers 1621-7250-80 1621 7250 80
1621725082 Atlas Copco Heat exchangers 1621-7250-82 1621 7250 82
1621729528 Atlas Copco Heat exchangers 1621-7295-28 1621 7295 28
1621819308 Atlas Copco Heat exchangers 1621-8193-08 1621 8193 08
1621819708 Atlas Copco Heat exchangers 1621-8197-08 1621 8197 08
1621819902 Atlas Copco Heat exchangers 1621-8199-02 1621 8199 02
1621819908 Atlas Copco Heat exchangers 1621-8199-08 1621 8199 08
1621848700 Atlas Copco Heat exchangers 1621-8487-00 1621 8487 00
1621850028 Atlas Copco Heat exchangers 1621-8500-28 1621 8500 28
1621850080 Atlas Copco Heat exchangers 1621-8500-80 1621 8500 80
1621850082 Atlas Copco Heat exchangers 1621-8500-82 1621 8500 82
1621850083 Atlas Copco Heat exchangers 1621-8500-83 1621 8500 83
1621850085 Atlas Copco Heat exchangers 1621-8500-85 1621 8500 85
1621850328 Atlas Copco Heat exchangers 1621-8503-28 1621 8503 28
1621850380 Atlas Copco Heat exchangers 1621-8503-80 1621 8503 80
1621850382 Atlas Copco Heat exchangers 1621-8503-82 1621 8503 82
1621850383 Atlas Copco Heat exchangers 1621-8503-83 1621 8503 83
1621850385 Atlas Copco Heat exchangers 1621-8503-85 1621 8503 85
1621851480 Atlas Copco Heat exchangers 1621-8514-80 1621 8514 80
1621851482 Atlas Copco Heat exchangers 1621-8514-82 1621 8514 82
1621851582 Atlas Copco Heat exchangers 1621-8515-82 1621 8515 82
1621851583 Atlas Copco Heat exchangers 1621-8515-83 1621 8515 83
1621853700 Atlas Copco Heat exchangers 1621-8537-00 1621 8537 00
1621853701 Atlas Copco Heat exchangers 1621-8537-01 1621 8537 01
1621869582 Atlas Copco Heat exchangers 1621-8695-82 1621 8695 82
1621869590 Atlas Copco Heat exchangers 1621-8695-90 1621 8695 90
1621869591 Atlas Copco Heat exchangers 1621-8695-91 1621 8695 91
1621869593 Atlas Copco Heat exchangers 1621-8695-93 1621 8695 93
1621869680 Atlas Copco Heat exchangers 1621-8696-80 1621 8696 80
1621869682 Atlas Copco Heat exchangers 1621-8696-82 1621 8696 82
1621869690 Atlas Copco Heat exchangers 1621-8696-90 1621 8696 90
1621869691 Atlas Copco Heat exchangers 1621-8696-91 1621 8696 91
1621869693 Atlas Copco Heat exchangers 1621-8696-93 1621 8696 93
1621869780 Atlas Copco Heat exchangers 1621-8697-80 1621 8697 80
1621869782 Atlas Copco Heat exchangers 1621-8697-82 1621 8697 82
1621869783 Atlas Copco Heat exchangers 1621-8697-83 1621 8697 83
1621869785 Atlas Copco Heat exchangers 1621-8697-85 1621 8697 85
1621869790 Atlas Copco Heat exchangers 1621-8697-90 1621 8697 90
1621869791 Atlas Copco Heat exchangers 1621-8697-91 1621 8697 91
1621869793 Atlas Copco Heat exchangers 1621-8697-93 1621 8697 93
1621904500 Atlas Copco Heat exchangers 1621-9045-00 1621 9045 00
1621912908 Atlas Copco Heat exchangers 1621-9129-08 1621 9129 08
1621920980 Atlas Copco Heat exchangers 1621-9209-80 1621 9209 80
1621920982 Atlas Copco Heat exchangers 1621-9209-82 1621 9209 82
1621948100 Atlas Copco Heat exchangers 1621-9481-00 1621 9481 00
1621948400 Atlas Copco Heat exchangers 1621-9484-00 1621 9484 00
1621948500 Atlas Copco Heat exchangers 1621-9485-00 1621 9485 00
1621954380 Atlas Copco Heat exchangers 1621-9543-80 1621 9543 80
1621954382 Atlas Copco Heat exchangers 1621-9543-82 1621 9543 82
1621954383 Atlas Copco Heat exchangers 1621-9543-83 1621 9543 83
1621954480 Atlas Copco Heat exchangers 1621-9544-80 1621 9544 80
1621954482 Atlas Copco Heat exchangers 1621-9544-82 1621 9544 82
1621955602 Atlas Copco Heat exchangers 1621-9556-02 1621 9556 02
1621992402 Atlas Copco Heat exchangers 1621-9924-02 1621 9924 02
1621992408 Atlas Copco Heat exchangers 1621-9924-08 1621 9924 08
1621992502 Atlas Copco Heat exchangers 1621-9925-02 1621 9925 02
1621992508 Atlas Copco Heat exchangers 1621-9925-08 1621 9925 08
1621992802 Atlas Copco Heat exchangers 1621-9928-02 1621 9928 02
1621992808 Atlas Copco Heat exchangers 1621-9928-08 1621 9928 08
1621992902 Atlas Copco Heat exchangers 1621-9929-02 1621 9929 02
1621992908 Atlas Copco Heat exchangers 1621-9929-08 1621 9929 08
1621993102 Atlas Copco Heat exchangers 1621-9931-02 1621 9931 02
1621993108 Atlas Copco Heat exchangers 1621-9931-08 1621 9931 08
1622016300 Atlas Copco Heat exchangers 1622-0163-00 1622 0163 00
1622024001 Atlas Copco Heat exchangers 1622-0240-01 1622 0240 01
1622024004 Atlas Copco Heat exchangers 1622-0240-04 1622 0240 04
1622024005 Atlas Copco Heat exchangers 1622-0240-05 1622 0240 05
1622032100 Atlas Copco Heat exchangers 1622-0321-00 1622 0321 00
1622059407 Atlas Copco Heat exchangers 1622-0594-07 1622 0594 07
1622059409 Atlas Copco Heat exchangers 1622-0594-09 1622 0594 09
1622059410 Atlas Copco Heat exchangers 1622-0594-10 1622 0594 10
1622059420 Atlas Copco Heat exchangers 1622-0594-20 1622 0594 20
1622075000 Atlas Copco Heat exchangers 1622-0750-00 1622 0750 00
1622094401 Atlas Copco Heat exchangers 1622-0944-01 1622 0944 01
1622094402 Atlas Copco Heat exchangers 1622-0944-02 1622 0944 02
1622119100 Atlas Copco Heat exchangers 1622-1191-00 1622 1191 00
1622131400 Atlas Copco Heat exchangers 1622-1314-00 1622 1314 00
1622131401 Atlas Copco Heat exchangers 1622-1314-01 1622 1314 01
1622131680 Atlas Copco Heat exchangers 1622-1316-80 1622 1316 80
1622131681 Atlas Copco Heat exchangers 1622-1316-81 1622 1316 81
1622142400 Atlas Copco Heat exchangers 1622-1424-00 1622 1424 00
1622142700 Atlas Copco Heat exchangers 1622-1427-00 1622 1427 00
1622144200 Atlas Copco Heat exchangers 1622-1442-00 1622 1442 00
1622148800 Atlas Copco Heat exchangers 1622-1488-00 1622 1488 00
1622153000 Atlas Copco Heat exchangers 1622-1530-00 1622 1530 00
1622153001 Atlas Copco Heat exchangers 1622-1530-01 1622 1530 01
1622160500 Atlas Copco Heat exchangers 1622-1605-00 1622 1605 00
1622160600 Atlas Copco Heat exchangers 1622-1606-00 1622 1606 00
1622201400 Atlas Copco Heat exchangers 1622-2014-00 1622 2014 00
1622204010 Atlas Copco Heat exchangers 1622-2040-10 1622 2040 10
1622204020 Atlas Copco Heat exchangers 1622-2040-20 1622 2040 20
1622204100 Atlas Copco Heat exchangers 1622-2041-00 1622 2041 00
1622204200 Atlas Copco Heat exchangers 1622-2042-00 1622 2042 00
1622219800 Atlas Copco Heat exchangers 1622-2198-00 1622 2198 00
1622219900 Atlas Copco Heat exchangers 1622-2199-00 1622 2199 00
1622252000 Atlas Copco Heat exchangers 1622-2520-00 1622 2520 00
1622262200 Atlas Copco Heat exchangers 1622-2622-00 1622 2622 00
1622263100 Atlas Copco Heat exchangers 1622-2631-00 1622 2631 00
1622287100 Atlas Copco Heat exchangers 1622-2871-00 1622 2871 00
1622287101 Atlas Copco Heat exchangers 1622-2871-01 1622 2871 01
1622287200 Atlas Copco Heat exchangers 1622-2872-00 1622 2872 00
1622287300 Atlas Copco Heat exchangers 1622-2873-00 1622 2873 00
1622318700 Atlas Copco Heat exchangers 1622-3187-00 1622 3187 00
1622318800 Atlas Copco Heat exchangers 1622-3188-00 1622 3188 00
1622318899 Atlas Copco Heat exchangers 1622-3188-99 1622 3188 99
1622318900 Atlas Copco Heat exchangers 1622-3189-00 1622 3189 00
1622318999 Atlas Copco Heat exchangers 1622-3189-99 1622 3189 99
1622319000 Atlas Copco Heat exchangers 1622-3190-00 1622 3190 00
1622319099 Atlas Copco Heat exchangers 1622-3190-99 1622 3190 99
1622319100 Atlas Copco Heat exchangers 1622-3191-00 1622 3191 00
1622319200 Atlas Copco Heat exchangers 1622-3192-00 1622 3192 00
1622319300 Atlas Copco Heat exchangers 1622-3193-00 1622 3193 00
1622319400 Atlas Copco Heat exchangers 1622-3194-00 1622 3194 00
1622319500 Atlas Copco Heat exchangers 1622-3195-00 1622 3195 00
1622319600 Atlas Copco Heat exchangers 1622-3196-00 1622 3196 00
1622325300 Atlas Copco Heat exchangers 1622-3253-00 1622 3253 00
1622330300 Atlas Copco Heat exchangers 1622-3303-00 1622 3303 00
1622345100 Atlas Copco Heat exchangers 1622-3451-00 1622 3451 00
1622345200 Atlas Copco Heat exchangers 1622-3452-00 1622 3452 00
1622345300 Atlas Copco Heat exchangers 1622-3453-00 1622 3453 00
1622376600 Atlas Copco Heat exchangers 1622-3766-00 1622 3766 00
1622376710 Atlas Copco Heat exchangers 1622-3767-10 1622 3767 10
1622376800 Atlas Copco Heat exchangers 1622-3768-00 1622 3768 00
1622376899 Atlas Copco Heat exchangers 1622-3768-99 1622 3768 99
1622376910 Atlas Copco Heat exchangers 1622-3769-10 1622 3769 10
1622377000 Atlas Copco Heat exchangers 1622-3770-00 1622 3770 00
1622377099 Atlas Copco Heat exchangers 1622-3770-99 1622 3770 99
1622377110 Atlas Copco Heat exchangers 1622-3771-10 1622 3771 10
1622377199 Atlas Copco Heat exchangers 1622-3771-99 1622 3771 99
1622377900 Atlas Copco Heat exchangers 1622-3779-00 1622 3779 00
1622378000 Atlas Copco Heat exchangers 1622-3780-00 1622 3780 00
1622378100 Atlas Copco Heat exchangers 1622-3781-00 1622 3781 00
1622392700 Atlas Copco Heat exchangers 1622-3927-00 1622 3927 00
1622392800 Atlas Copco Heat exchangers 1622-3928-00 1622 3928 00
1622392900 Atlas Copco Heat exchangers 1622-3929-00 1622 3929 00
1622393000 Atlas Copco Heat exchangers 1622-3930-00 1622 3930 00
1622393100 Atlas Copco Heat exchangers 1622-3931-00 1622 3931 00
1622393200 Atlas Copco Heat exchangers 1622-3932-00 1622 3932 00
1622393300 Atlas Copco Heat exchangers 1622-3933-00 1622 3933 00
1622393400 Atlas Copco Heat exchangers 1622-3934-00 1622 3934 00
1622405400 Atlas Copco Heat exchangers 1622-4054-00 1622 4054 00
1622429800 Atlas Copco Heat exchangers 1622-4298-00 1622 4298 00
1622436600 Atlas Copco Heat exchangers 1622-4366-00 1622 4366 00
1622436700 Atlas Copco Heat exchangers 1622-4367-00 1622 4367 00
1622436800 Atlas Copco Heat exchangers 1622-4368-00 1622 4368 00
1622436900 Atlas Copco Heat exchangers 1622-4369-00 1622 4369 00
1622437000 Atlas Copco Heat exchangers 1622-4370-00 1622 4370 00
1622437100 Atlas Copco Heat exchangers 1622-4371-00 1622 4371 00
1622437200 Atlas Copco Heat exchangers 1622-4372-00 1622 4372 00
1622450300 Atlas Copco Heat exchangers 1622-4503-00 1622 4503 00
1622465280 Atlas Copco Heat exchangers 1622-4652-80 1622 4652 80
1622465380 Atlas Copco Heat exchangers 1622-4653-80 1622 4653 80
1622476481 Atlas Copco Heat exchangers 1622-4764-81 1622 4764 81
1622476581 Atlas Copco Heat exchangers 1622-4765-81 1622 4765 81
1622493500 Atlas Copco Heat exchangers 1622-4935-00 1622 4935 00
1622493900 Atlas Copco Heat exchangers 1622-4939-00 1622 4939 00
1622507780 Atlas Copco Heat exchangers 1622-5077-80 1622 5077 80
1622509000 Atlas Copco Heat exchangers 1622-5090-00 1622 5090 00
1622524980 Atlas Copco Heat exchangers 1622-5249-80 1622 5249 80
1622528480 Atlas Copco Heat exchangers 1622-5284-80 1622 5284 80
1622533000 Atlas Copco Heat exchangers 1622-5330-00 1622 5330 00
1622536200 Atlas Copco Heat exchangers 1622-5362-00 1622 5362 00
1622573000 Atlas Copco Heat exchangers 1622-5730-00 1622 5730 00
1622579599 Atlas Copco Heat exchangers 1622-5795-99 1622 5795 99
1622587600 Atlas Copco Heat exchangers 1622-5876-00 1622 5876 00
1622602800 Atlas Copco Heat exchangers 1622-6028-00 1622 6028 00
1622670200 Atlas Copco Heat exchangers 1622-6702-00 1622 6702 00
1622670201 Atlas Copco Heat exchangers 1622-6702-01 1622 6702 01
1622689700 Atlas Copco Heat exchangers 1622-6897-00 1622 6897 00
1622689800 Atlas Copco Heat exchangers 1622-6898-00 1622 6898 00
1622692282 Atlas Copco Heat exchangers 1622-6922-82 1622 6922 82
1622783001 Atlas Copco Heat exchangers 1622-7830-01 1622 7830 01
1622783002 Atlas Copco Heat exchangers 1622-7830-02 1622 7830 02
1622783003 Atlas Copco Heat exchangers 1622-7830-03 1622 7830 03
1622783004 Atlas Copco Heat exchangers 1622-7830-04 1622 7830 04
1622783005 Atlas Copco Heat exchangers 1622-7830-05 1622 7830 05
1622815080 Atlas Copco Heat exchangers 1622-8150-80 1622 8150 80
1622877600 Atlas Copco Heat exchangers 1622-8776-00 1622 8776 00
1622877900 Atlas Copco Heat exchangers 1622-8779-00 1622 8779 00
1622968500 Atlas Copco Heat exchangers 1622-9685-00 1622 9685 00
1623020080 Atlas Copco Heat exchangers 1623-0200-80 1623 0200 80
1623020082 Atlas Copco Heat exchangers 1623-0200-82 1623 0200 82
1623023208 Atlas Copco Heat exchangers 1623-0232-08 1623 0232 08
1623023408 Atlas Copco Heat exchangers 1623-0234-08 1623 0234 08
1623027600 Atlas Copco Heat exchangers 1623-0276-00 1623 0276 00
1623029080 Atlas Copco Heat exchangers 1623-0290-80 1623 0290 80
1623029082 Atlas Copco Heat exchangers 1623-0290-82 1623 0290 82
1623045802 Atlas Copco Heat exchangers 1623-0458-02 1623 0458 02
1623045808 Atlas Copco Heat exchangers 1623-0458-08 1623 0458 08
1623046102 Atlas Copco Heat exchangers 1623-0461-02 1623 0461 02
1623046108 Atlas Copco Heat exchangers 1623-0461-08 1623 0461 08
1623047608 Atlas Copco Heat exchangers 1623-0476-08 1623 0476 08
1623055308 Atlas Copco Heat exchangers 1623-0553-08 1623 0553 08
1623062708 Atlas Copco Heat exchangers 1623-0627-08 1623 0627 08
1623062808 Atlas Copco Heat exchangers 1623-0628-08 1623 0628 08
1623063308 Atlas Copco Heat exchangers 1623-0633-08 1623 0633 08
1623068900 Atlas Copco Heat exchangers 1623-0689-00 1623 0689 00
1623172100 Atlas Copco Heat exchangers 1623-1721-00 1623 1721 00
1623172700 Atlas Copco Heat exchangers 1623-1727-00 1623 1727 00
1623172800 Atlas Copco Heat exchangers 1623-1728-00 1623 1728 00
1623368280 Atlas Copco Heat exchangers 1623-3682-80 1623 3682 80
1623403408 Atlas Copco Heat exchangers 1623-4034-08 1623 4034 08
1623403502 Atlas Copco Heat exchangers 1623-4035-02 1623 4035 02
1623403508 Atlas Copco Heat exchangers 1623-4035-08 1623 4035 08
1623416002 Atlas Copco Heat exchangers 1623-4160-02 1623 4160 02
1623416008 Atlas Copco Heat exchangers 1623-4160-08 1623 4160 08
1623447808 Atlas Copco Heat exchangers 1623-4478-08 1623 4478 08
1623447908 Atlas Copco Heat exchangers 1623-4479-08 1623 4479 08
1623485900 Atlas Copco Heat exchangers 1623-4859-00 1623 4859 00
1623567100 Atlas Copco Heat exchangers 1623-5671-00 1623 5671 00
1623567200 Atlas Copco Heat exchangers 1623-5672-00 1623 5672 00
1623567300 Atlas Copco Heat exchangers 1623-5673-00 1623 5673 00
1623567400 Atlas Copco Heat exchangers 1623-5674-00 1623 5674 00
1623693500 Atlas Copco Heat exchangers 1623-6935-00 1623 6935 00
1623695302 Atlas Copco Heat exchangers 1623-6953-02 1623 6953 02
1623695308 Atlas Copco Heat exchangers 1623-6953-08 1623 6953 08
1623711700 Atlas Copco Heat exchangers 1623-7117-00 1623 7117 00
1623711800 Atlas Copco Heat exchangers 1623-7118-00 1623 7118 00
1623711900 Atlas Copco Heat exchangers 1623-7119-00 1623 7119 00
1623712000 Atlas Copco Heat exchangers 1623-7120-00 1623 7120 00
1623712100 Atlas Copco Heat exchangers 1623-7121-00 1623 7121 00
1623712200 Atlas Copco Heat exchangers 1623-7122-00 1623 7122 00
1623721700 Atlas Copco Heat exchangers 1623-7217-00 1623 7217 00
1623739000 Atlas Copco Heat exchangers 1623-7390-00 1623 7390 00
1623772700 Atlas Copco Heat exchangers 1623-7727-00 1623 7727 00
1623797100 Atlas Copco Heat exchangers 1623-7971-00 1623 7971 00
1623838900 Atlas Copco Heat exchangers 1623-8389-00 1623 8389 00
1623838901 Atlas Copco Heat exchangers 1623-8389-01 1623 8389 01
1624852631 Atlas Copco Heat exchangers 1624-8526-31 1624 8526 31
1624852635 Atlas Copco Heat exchangers 1624-8526-35 1624 8526 35
1624852680 Atlas Copco Heat exchangers 1624-8526-80 1624 8526 80
1624852685 Atlas Copco Heat exchangers 1624-8526-85 1624 8526 85
1624852780 Atlas Copco Heat exchangers 1624-8527-80 1624 8527 80
1624852785 Atlas Copco Heat exchangers 1624-8527-85 1624 8527 85
1624869480 Atlas Copco Heat exchangers 1624-8694-80 1624 8694 80
1624878886 Atlas Copco Heat exchangers 1624-8788-86 1624 8788 86
1625174710 Atlas Copco Heat exchangers 1625-1747-10 1625 1747 10
1625174711 Atlas Copco Heat exchangers 1625-1747-11 1625 1747 11
1625394700 Atlas Copco Heat exchangers 1625-3947-00 1625 3947 00
1625423001 Atlas Copco Heat exchangers 1625-4230-01 1625 4230 01
1625423004 Atlas Copco Heat exchangers 1625-4230-04 1625 4230 04
1625423008 Atlas Copco Heat exchangers 1625-4230-08 1625 4230 08
1625473601 Atlas Copco Heat exchangers 1625-4736-01 1625 4736 01
1625473602 Atlas Copco Heat exchangers 1625-4736-02 1625 4736 02
1625473603 Atlas Copco Heat exchangers 1625-4736-03 1625 4736 03
1625473604 Atlas Copco Heat exchangers 1625-4736-04 1625 4736 04
1625594401 Atlas Copco Heat exchangers 1625-5944-01 1625 5944 01
1625594402 Atlas Copco Heat exchangers 1625-5944-02 1625 5944 02
1625594403 Atlas Copco Heat exchangers 1625-5944-03 1625 5944 03
1625594404 Atlas Copco Heat exchangers 1625-5944-04 1625 5944 04
1625594405 Atlas Copco Heat exchangers 1625-5944-05 1625 5944 05
1625594501 Atlas Copco Heat exchangers 1625-5945-01 1625 5945 01
1625594502 Atlas Copco Heat exchangers 1625-5945-02 1625 5945 02
1625594503 Atlas Copco Heat exchangers 1625-5945-03 1625 5945 03
1625594505 Atlas Copco Heat exchangers 1625-5945-05 1625 5945 05
1625753100 Atlas Copco Heat exchangers 1625-7531-00 1625 7531 00
1625841100 Atlas Copco Heat exchangers 1625-8411-00 1625 8411 00
1625857400 Atlas Copco Heat exchangers 1625-8574-00 1625 8574 00
1625890201 Atlas Copco Heat exchangers 1625-8902-01 1625 8902 01
1625890202 Atlas Copco Heat exchangers 1625-8902-02 1625 8902 02
1625890203 Atlas Copco Heat exchangers 1625-8902-03 1625 8902 03
1625890204 Atlas Copco Heat exchangers 1625-8902-04 1625 8902 04
1625890301 Atlas Copco Heat exchangers 1625-8903-01 1625 8903 01
1625890302 Atlas Copco Heat exchangers 1625-8903-02 1625 8903 02
1625890303 Atlas Copco Heat exchangers 1625-8903-03 1625 8903 03
1625890402 Atlas Copco Heat exchangers 1625-8904-02 1625 8904 02
1625890502 Atlas Copco Heat exchangers 1625-8905-02 1625 8905 02
1625941006 Atlas Copco Heat exchangers 1625-9410-06 1625 9410 06
1625941007 Atlas Copco Heat exchangers 1625-9410-07 1625 9410 07
1625941023 Atlas Copco Heat exchangers 1625-9410-23 1625 9410 23
1625941030 Atlas Copco Heat exchangers 1625-9410-30 1625 9410 30
1625941038 Atlas Copco Heat exchangers 1625-9410-38 1625 9410 38
1625941046 Atlas Copco Heat exchangers 1625-9410-46 1625 9410 46
1625941061 Atlas Copco Heat exchangers 1625-9410-61 1625 9410 61
1626003202 Atlas Copco Heat exchangers 1626-0032-02 1626 0032 02
1626016002 Atlas Copco Heat exchangers 1626-0160-02 1626 0160 02
1626016103 Atlas Copco Heat exchangers 1626-0161-03 1626 0161 03
1626074202 Atlas Copco Heat exchangers 1626-0742-02 1626 0742 02
1626080700 Atlas Copco Heat exchangers 1626-0807-00 1626 0807 00
1626098200 Atlas Copco Heat exchangers 1626-0982-00 1626 0982 00
1626106103 Atlas Copco Heat exchangers 1626-1061-03 1626 1061 03
1626106600 Atlas Copco Heat exchangers 1626-1066-00 1626 1066 00
1626106602 Atlas Copco Heat exchangers 1626-1066-02 1626 1066 02
1626107101 Atlas Copco Heat exchangers 1626-1071-01 1626 1071 01
1626109600 Atlas Copco Heat exchangers 1626-1096-00 1626 1096 00
1626140901 Atlas Copco Heat exchangers 1626-1409-01 1626 1409 01
1626145502 Atlas Copco Heat exchangers 1626-1455-02 1626 1455 02
1626166900 Atlas Copco Heat exchangers 1626-1669-00 1626 1669 00
1626176100 Atlas Copco Heat exchangers 1626-1761-00 1626 1761 00
1626176800 Atlas Copco Heat exchangers 1626-1768-00 1626 1768 00
1626177500 Atlas Copco Heat exchangers 1626-1775-00 1626 1775 00
1626192700 Atlas Copco Heat exchangers 1626-1927-00 1626 1927 00
1626219600 Atlas Copco Heat exchangers 1626-2196-00 1626 2196 00
1626254200 Atlas Copco Heat exchangers 1626-2542-00 1626 2542 00
1626306580 Atlas Copco Heat exchangers 1626-3065-80 1626 3065 80
1626308003 Atlas Copco Heat exchangers 1626-3080-03 1626 3080 03
1626321301 Atlas Copco Heat exchangers 1626-3213-01 1626 3213 01
1626334102 Atlas Copco Heat exchangers 1626-3341-02 1626 3341 02
1626338204 Atlas Copco Heat exchangers 1626-3382-04 1626 3382 04
1626339700 Atlas Copco Heat exchangers 1626-3397-00 1626 3397 00
1626346200 Atlas Copco Heat exchangers 1626-3462-00 1626 3462 00
1626435102 Atlas Copco Heat exchangers 1626-4351-02 1626 4351 02
1626437502 Atlas Copco Heat exchangers 1626-4375-02 1626 4375 02
1626448700 Atlas Copco Heat exchangers 1626-4487-00 1626 4487 00
1626475602 Atlas Copco Heat exchangers 1626-4756-02 1626 4756 02
1626523800 Atlas Copco Heat exchangers 1626-5238-00 1626 5238 00
1626645501 Atlas Copco Heat exchangers 1626-6455-01 1626 6455 01
1626684500 Atlas Copco Heat exchangers 1626-6845-00 1626 6845 00
1626785800 Atlas Copco Heat exchangers 1626-7858-00 1626 7858 00
1626877700 Atlas Copco Heat exchangers 1626-8777-00 1626 8777 00
1626884400 Atlas Copco Heat exchangers 1626-8844-00 1626 8844 00
1627425648 Atlas Copco Heat exchangers 1627-4256-48 1627 4256 48
1627425649 Atlas Copco Heat exchangers 1627-4256-49 1627 4256 49
1627425650 Atlas Copco Heat exchangers 1627-4256-50 1627 4256 50
1627946000 Atlas Copco Heat exchangers 1627-9460-00 1627 9460 00
1628257300 Atlas Copco Heat exchangers 1628-2573-00 1628 2573 00
1628295780 Atlas Copco Heat exchangers 1628-2957-80 1628 2957 80
1628433100 Atlas Copco Heat exchangers 1628-4331-00 1628 4331 00
1628486300 Atlas Copco Heat exchangers 1628-4863-00 1628 4863 00
1629984200 Atlas Copco Heat exchangers 1629-9842-00 1629 9842 00
1630031500 Atlas Copco Heat exchangers 1630-0315-00 1630 0315 00
1630033000 Atlas Copco Heat exchangers 1630-0330-00 1630 0330 00
1630033100 Atlas Copco Heat exchangers 1630-0331-00 1630 0331 00
1630049100 Atlas Copco Heat exchangers 1630-0491-00 1630 0491 00
1630057700 Atlas Copco Heat exchangers 1630-0577-00 1630 0577 00
1630057780 Atlas Copco Heat exchangers 1630-0577-80 1630 0577 80
1630057800 Atlas Copco Heat exchangers 1630-0578-00 1630 0578 00
1630085500 Atlas Copco Heat exchangers 1630-0855-00 1630 0855 00
1630093000 Atlas Copco Heat exchangers 1630-0930-00 1630 0930 00
1630093100 Atlas Copco Heat exchangers 1630-0931-00 1630 0931 00
1630093400 Atlas Copco Heat exchangers 1630-0934-00 1630 0934 00
1630105200 Atlas Copco Heat exchangers 1630-1052-00 1630 1052 00
1630105300 Atlas Copco Heat exchangers 1630-1053-00 1630 1053 00
1630105400 Atlas Copco Heat exchangers 1630-1054-00 1630 1054 00
1630115600 Atlas Copco Heat exchangers 1630-1156-00 1630 1156 00
1630115700 Atlas Copco Heat exchangers 1630-1157-00 1630 1157 00
1630200100 Atlas Copco Heat exchangers 1630-2001-00 1630 2001 00
1630200200 Atlas Copco Heat exchangers 1630-2002-00 1630 2002 00
1630200300 Atlas Copco Heat exchangers 1630-2003-00 1630 2003 00
1630200500 Atlas Copco Heat exchangers 1630-2005-00 1630 2005 00
1630200700 Atlas Copco Heat exchangers 1630-2007-00 1630 2007 00
1630200800 Atlas Copco Heat exchangers 1630-2008-00 1630 2008 00
1630200900 Atlas Copco Heat exchangers 1630-2009-00 1630 2009 00
1630201000 Atlas Copco Heat exchangers 1630-2010-00 1630 2010 00
1631022141 Atlas Copco Heat exchangers 1631-0221-41 1631 0221 41
1631022142 Atlas Copco Heat exchangers 1631-0221-42 1631 0221 42
1631022143 Atlas Copco Heat exchangers 1631-0221-43 1631 0221 43
1631022144 Atlas Copco Heat exchangers 1631-0221-44 1631 0221 44
1631022145 Atlas Copco Heat exchangers 1631-0221-45 1631 0221 45
1631022146 Atlas Copco Heat exchangers 1631-0221-46 1631 0221 46
1631022147 Atlas Copco Heat exchangers 1631-0221-47 1631 0221 47
1631032940 Atlas Copco Heat exchangers 1631-0329-40 1631 0329 40
1631032941 Atlas Copco Heat exchangers 1631-0329-41 1631 0329 41
1631032942 Atlas Copco Heat exchangers 1631-0329-42 1631 0329 42
1631032943 Atlas Copco Heat exchangers 1631-0329-43 1631 0329 43
1631032944 Atlas Copco Heat exchangers 1631-0329-44 1631 0329 44
1631032945 Atlas Copco Heat exchangers 1631-0329-45 1631 0329 45
1631032946 Atlas Copco Heat exchangers 1631-0329-46 1631 0329 46
1631032947 Atlas Copco Heat exchangers 1631-0329-47 1631 0329 47
1631034400 Atlas Copco Heat exchangers 1631-0344-00 1631 0344 00
1631035800 Atlas Copco Heat exchangers 1631-0358-00 1631 0358 00
1631035810 Atlas Copco Heat exchangers 1631-0358-10 1631 0358 10
1631035820 Atlas Copco Heat exchangers 1631-0358-20 1631 0358 20
1631035900 Atlas Copco Heat exchangers 1631-0359-00 1631 0359 00
1631035910 Atlas Copco Heat exchangers 1631-0359-10 1631 0359 10
1631036000 Atlas Copco Heat exchangers 1631-0360-00 1631 0360 00
1631039100 Atlas Copco Heat exchangers 1631-0391-00 1631 0391 00
1631100941 Atlas Copco Heat exchangers 1631-1009-41 1631 1009 41
1631100942 Atlas Copco Heat exchangers 1631-1009-42 1631 1009 42
1631100943 Atlas Copco Heat exchangers 1631-1009-43 1631 1009 43
1631100944 Atlas Copco Heat exchangers 1631-1009-44 1631 1009 44
1631100945 Atlas Copco Heat exchangers 1631-1009-45 1631 1009 45
1631100946 Atlas Copco Heat exchangers 1631-1009-46 1631 1009 46
1631100947 Atlas Copco Heat exchangers 1631-1009-47 1631 1009 47
1631100948 Atlas Copco Heat exchangers 1631-1009-48 1631 1009 48
1631100949 Atlas Copco Heat exchangers 1631-1009-49 1631 1009 49
1631100950 Atlas Copco Heat exchangers 1631-1009-50 1631 1009 50
1901000326 Atlas Copco Heat exchangers 1901-0003-26 1901 0003 26
1901000327 Atlas Copco Heat exchangers 1901-0003-27 1901 0003 27
1901000479 Atlas Copco Heat exchangers 1901-0004-79 1901 0004 79
1901001738 Atlas Copco Heat exchangers 1901-0017-38 1901 0017 38
1901001752 Atlas Copco Heat exchangers 1901-0017-52 1901 0017 52
1901001764 Atlas Copco Heat exchangers 1901-0017-64 1901 0017 64
1901003331 Atlas Copco Heat exchangers 1901-0033-31 1901 0033 31
1901003332 Atlas Copco Heat exchangers 1901-0033-32 1901 0033 32
1901004309 Atlas Copco Heat exchangers 1901-0043-09 1901 0043 09
1901004312 Atlas Copco Heat exchangers 1901-0043-12 1901 0043 12
1901004561 Atlas Copco Heat exchangers 1901-0045-61 1901 0045 61
1901004890 Atlas Copco Heat exchangers 1901-0048-90 1901 0048 90
1901005256 Atlas Copco Heat exchangers 1901-0052-56 1901 0052 56
1901005320 Atlas Copco Heat exchangers 1901-0053-20 1901 0053 20
1901006802 Atlas Copco Heat exchangers 1901-0068-02 1901 0068 02
1901006813 Atlas Copco Heat exchangers 1901-0068-13 1901 0068 13
1901006820 Atlas Copco Heat exchangers 1901-0068-20 1901 0068 20
1901006827 Atlas Copco Heat exchangers 1901-0068-27 1901 0068 27
1901006955 Atlas Copco Heat exchangers 1901-0069-55 1901 0069 55
1901007888 Atlas Copco Heat exchangers 1901-0078-88 1901 0078 88
1901007905 Atlas Copco Heat exchangers 1901-0079-05 1901 0079 05
1901008065 Atlas Copco Heat exchangers 1901-0080-65 1901 0080 65
1901008749 Atlas Copco Heat exchangers 1901-0087-49 1901 0087 49
1901008750 Atlas Copco Heat exchangers 1901-0087-50 1901 0087 50
1901008897 Atlas Copco Heat exchangers 1901-0088-97 1901 0088 97
1901008954 Atlas Copco Heat exchangers 1901-0089-54 1901 0089 54
1901009018 Atlas Copco Heat exchangers 1901-0090-18 1901 0090 18
1901009172 Atlas Copco Heat exchangers 1901-0091-72 1901 0091 72
1901009174 Atlas Copco Heat exchangers 1901-0091-74 1901 0091 74
1901009544 Atlas Copco Heat exchangers 1901-0095-44 1901 0095 44
1901010503 Atlas Copco Heat exchangers 1901-0105-03 1901 0105 03
1901010602 Atlas Copco Heat exchangers 1901-0106-02 1901 0106 02
1901010935 Atlas Copco Heat exchangers 1901-0109-35 1901 0109 35
1901011314 Atlas Copco Heat exchangers 1901-0113-14 1901 0113 14
1901011708 Atlas Copco Heat exchangers 1901-0117-08 1901 0117 08
1901012094 Atlas Copco Heat exchangers 1901-0120-94 1901 0120 94
1901012099 Atlas Copco Heat exchangers 1901-0120-99 1901 0120 99
1901012228 Atlas Copco Heat exchangers 1901-0122-28 1901 0122 28
1901012231 Atlas Copco Heat exchangers 1901-0122-31 1901 0122 31
1901012476 Atlas Copco Heat exchangers 1901-0124-76 1901 0124 76
1901012511 Atlas Copco Heat exchangers 1901-0125-11 1901 0125 11
1901012544 Atlas Copco Heat exchangers 1901-0125-44 1901 0125 44
1901012546 Atlas Copco Heat exchangers 1901-0125-46 1901 0125 46
1901012619 Atlas Copco Heat exchangers 1901-0126-19 1901 0126 19
1901012620 Atlas Copco Heat exchangers 1901-0126-20 1901 0126 20
1901013000 Atlas Copco Heat exchangers 1901-0130-00 1901 0130 00
1901013367 Atlas Copco Heat exchangers 1901-0133-67 1901 0133 67
1901013636 Atlas Copco Heat exchangers 1901-0136-36 1901 0136 36
1901013637 Atlas Copco Heat exchangers 1901-0136-37 1901 0136 37
1901013638 Atlas Copco Heat exchangers 1901-0136-38 1901 0136 38
1901014605 Atlas Copco Heat exchangers 1901-0146-05 1901 0146 05
1901014800 Atlas Copco Heat exchangers 1901-0148-00 1901 0148 00
1901014805 Atlas Copco Heat exchangers 1901-0148-05 1901 0148 05
1901015005 Atlas Copco Heat exchangers 1901-0150-05 1901 0150 05
1901015137 Atlas Copco Heat exchangers 1901-0151-37 1901 0151 37
1901015154 Atlas Copco Heat exchangers 1901-0151-54 1901 0151 54
1901015500 Atlas Copco Heat exchangers 1901-0155-00 1901 0155 00
1901016642 Atlas Copco Heat exchangers 1901-0166-42 1901 0166 42
1901018379 Atlas Copco Heat exchangers 1901-0183-79 1901 0183 79
1901019789 Atlas Copco Heat exchangers 1901-0197-89 1901 0197 89
1901020573 Atlas Copco Heat exchangers 1901-0205-73 1901 0205 73
1901020598 Atlas Copco Heat exchangers 1901-0205-98 1901 0205 98
1901021644 Atlas Copco Heat exchangers 1901-0216-44 1901 0216 44
1901021649 Atlas Copco Heat exchangers 1901-0216-49 1901 0216 49
1901022178 Atlas Copco Heat exchangers 1901-0221-78 1901 0221 78
1901022282 Atlas Copco Heat exchangers 1901-0222-82 1901 0222 82
1901022421 Atlas Copco Heat exchangers 1901-0224-21 1901 0224 21
1901022433 Atlas Copco Heat exchangers 1901-0224-33 1901 0224 33
1901023035 Atlas Copco Heat exchangers 1901-0230-35 1901 0230 35
1901023513 Atlas Copco Heat exchangers 1901-0235-13 1901 0235 13
1901025403 Atlas Copco Heat exchangers 1901-0254-03 1901 0254 03
1901026370 Atlas Copco Heat exchangers 1901-0263-70 1901 0263 70
1901026923 Atlas Copco Heat exchangers 1901-0269-23 1901 0269 23
1901028052 Atlas Copco Heat exchangers 1901-0280-52 1901 0280 52
1901028540 Atlas Copco Heat exchangers 1901-0285-40 1901 0285 40
1901028711 Atlas Copco Heat exchangers 1901-0287-11 1901 0287 11
1901031441 Atlas Copco Heat exchangers 1901-0314-41 1901 0314 41
1901031558 Atlas Copco Heat exchangers 1901-0315-58 1901 0315 58
1901040230 Atlas Copco Heat exchangers 1901-0402-30 1901 0402 30
1901042045 Atlas Copco Heat exchangers 1901-0420-45 1901 0420 45
1901042050 Atlas Copco Heat exchangers 1901-0420-50 1901 0420 50
1901042051 Atlas Copco Heat exchangers 1901-0420-51 1901 0420 51
1901042054 Atlas Copco Heat exchangers 1901-0420-54 1901 0420 54
1901042709 Atlas Copco Heat exchangers 1901-0427-09 1901 0427 09
1901042714 Atlas Copco Heat exchangers 1901-0427-14 1901 0427 14
1901043618 Atlas Copco Heat exchangers 1901-0436-18 1901 0436 18
1901043732 Atlas Copco Heat exchangers 1901-0437-32 1901 0437 32
1901052781 Atlas Copco Heat exchangers 1901-0527-81 1901 0527 81
1901052789 Atlas Copco Heat exchangers 1901-0527-89 1901 0527 89
1901052875 Atlas Copco Heat exchangers 1901-0528-75 1901 0528 75
1901053189 Atlas Copco Heat exchangers 1901-0531-89 1901 0531 89
1901055061 Atlas Copco Heat exchangers 1901-0550-61 1901 0550 61
1901055185 Atlas Copco Heat exchangers 1901-0551-85 1901 0551 85
1901055305 Atlas Copco Heat exchangers 1901-0553-05 1901 0553 05
1901057385 Atlas Copco Heat exchangers 1901-0573-85 1901 0573 85
1901059923 Atlas Copco Heat exchangers 1901-0599-23 1901 0599 23
1901060346 Atlas Copco Heat exchangers 1901-0603-46 1901 0603 46
1901061476 Atlas Copco Heat exchangers 1901-0614-76 1901 0614 76
1901061477 Atlas Copco Heat exchangers 1901-0614-77 1901 0614 77
1901061479 Atlas Copco Heat exchangers 1901-0614-79 1901 0614 79
1901061480 Atlas Copco Heat exchangers 1901-0614-80 1901 0614 80
1901061931 Atlas Copco Heat exchangers 1901-0619-31 1901 0619 31
1901061932 Atlas Copco Heat exchangers 1901-0619-32 1901 0619 32
1901062307 Atlas Copco Heat exchangers 1901-0623-07 1901 0623 07
1901062618 Atlas Copco Heat exchangers 1901-0626-18 1901 0626 18
1901065449 Atlas Copco Heat exchangers 1901-0654-49 1901 0654 49
1901065872 Atlas Copco Heat exchangers 1901-0658-72 1901 0658 72
1901066176 Atlas Copco Heat exchangers 1901-0661-76 1901 0661 76
1901067515 Atlas Copco Heat exchangers 1901-0675-15 1901 0675 15
1901070192 Atlas Copco Heat exchangers 1901-0701-92 1901 0701 92
1901070540 Atlas Copco Heat exchangers 1901-0705-40 1901 0705 40
1901070671 Atlas Copco Heat exchangers 1901-0706-71 1901 0706 71
1901070677 Atlas Copco Heat exchangers 1901-0706-77 1901 0706 77
1901070682 Atlas Copco Heat exchangers 1901-0706-82 1901 0706 82
1901070687 Atlas Copco Heat exchangers 1901-0706-87 1901 0706 87
1901070692 Atlas Copco Heat exchangers 1901-0706-92 1901 0706 92
1901072155 Atlas Copco Heat exchangers 1901-0721-55 1901 0721 55
1901072156 Atlas Copco Heat exchangers 1901-0721-56 1901 0721 56
1901072159 Atlas Copco Heat exchangers 1901-0721-59 1901 0721 59
1901072160 Atlas Copco Heat exchangers 1901-0721-60 1901 0721 60
1901072202 Atlas Copco Heat exchangers 1901-0722-02 1901 0722 02
1901072986 Atlas Copco Heat exchangers 1901-0729-86 1901 0729 86
1901072993 Atlas Copco Heat exchangers 1901-0729-93 1901 0729 93
1901090081 Atlas Copco Heat exchangers 1901-0900-81 1901 0900 81
1901090094 Atlas Copco Heat exchangers 1901-0900-94 1901 0900 94
1901090096 Atlas Copco Heat exchangers 1901-0900-96 1901 0900 96
1901090097 Atlas Copco Heat exchangers 1901-0900-97 1901 0900 97
1901090120 Atlas Copco Heat exchangers 1901-0901-20 1901 0901 20
1901600014 Atlas Copco Heat exchangers 1901-6000-14 1901 6000 14
1901600015 Atlas Copco Heat exchangers 1901-6000-15 1901 6000 15
1901600016 Atlas Copco Heat exchangers 1901-6000-16 1901 6000 16
1901600053 Atlas Copco Heat exchangers 1901-6000-53 1901 6000 53
1901600055 Atlas Copco Heat exchangers 1901-6000-55 1901 6000 55
1901600100 Atlas Copco Heat exchangers 1901-6001-00 1901 6001 00
1901600116 Atlas Copco Heat exchangers 1901-6001-16 1901 6001 16
1901600117 Atlas Copco Heat exchangers 1901-6001-17 1901 6001 17
1901600118 Atlas Copco Heat exchangers 1901-6001-18 1901 6001 18
1901600136 Atlas Copco Heat exchangers 1901-6001-36 1901 6001 36
1901600176 Atlas Copco Heat exchangers 1901-6001-76 1901 6001 76
1901600193 Atlas Copco Heat exchangers 1901-6001-93 1901 6001 93
1901600194 Atlas Copco Heat exchangers 1901-6001-94 1901 6001 94
1901600287 Atlas Copco Heat exchangers 1901-6002-87 1901 6002 87
1901600290 Atlas Copco Heat exchangers 1901-6002-90 1901 6002 90
1901600416 Atlas Copco Heat exchangers 1901-6004-16 1901 6004 16
1901600522 Atlas Copco Heat exchangers 1901-6005-22 1901 6005 22
1901600773 Atlas Copco Heat exchangers 1901-6007-73 1901 6007 73
1901601540 Atlas Copco Heat exchangers 1901-6015-40 1901 6015 40
1901601656 Atlas Copco Heat exchangers 1901-6016-56 1901 6016 56
1901602043 Atlas Copco Heat exchangers 1901-6020-43 1901 6020 43
1901602241 Atlas Copco Heat exchangers 1901-6022-41 1901 6022 41
1901602258 Atlas Copco Heat exchangers 1901-6022-58 1901 6022 58
1901602514 Atlas Copco Heat exchangers 1901-6025-14 1901 6025 14
1901602522 Atlas Copco Heat exchangers 1901-6025-22 1901 6025 22
1901603702 Atlas Copco Heat exchangers 1901-6037-02 1901 6037 02
1901603769 Atlas Copco Heat exchangers 1901-6037-69 1901 6037 69
1901605319 Atlas Copco Heat exchangers 1901-6053-19 1901 6053 19
1901605772 Atlas Copco Heat exchangers 1901-6057-72 1901 6057 72
1901606168 Atlas Copco Heat exchangers 1901-6061-68 1901 6061 68
1901606200 Atlas Copco Heat exchangers 1901-6062-00 1901 6062 00
1901606218 Atlas Copco Heat exchangers 1901-6062-18 1901 6062 18
1901607034 Atlas Copco Heat exchangers 1901-6070-34 1901 6070 34
1901607547 Atlas Copco Heat exchangers 1901-6075-47 1901 6075 47
1901608040 Atlas Copco Heat exchangers 1901-6080-40 1901 6080 40
1901608057 Atlas Copco Heat exchangers 1901-6080-57 1901 6080 57
1901608297 Atlas Copco Heat exchangers 1901-6082-97 1901 6082 97
1901609980 Atlas Copco Heat exchangers 1901-6099-80 1901 6099 80
1901613529 Atlas Copco Heat exchangers 1901-6135-29 1901 6135 29
1901614014 Atlas Copco Heat exchangers 1901-6140-14 1901 6140 14
1901614022 Atlas Copco Heat exchangers 1901-6140-22 1901 6140 22
1901614030 Atlas Copco Heat exchangers 1901-6140-30 1901 6140 30
1901614972 Atlas Copco Heat exchangers 1901-6149-72 1901 6149 72
1901615201 Atlas Copco Heat exchangers 1901-6152-01 1901 6152 01
1901616100 Atlas Copco Heat exchangers 1901-6161-00 1901 6161 00
1901616530 Atlas Copco Heat exchangers 1901-6165-30 1901 6165 30
1901616548 Atlas Copco Heat exchangers 1901-6165-48 1901 6165 48
1901616555 Atlas Copco Heat exchangers 1901-6165-55 1901 6165 55
1901616746 Atlas Copco Heat exchangers 1901-6167-46 1901 6167 46
1901617264 Atlas Copco Heat exchangers 1901-6172-64 1901 6172 64
1901618684 Atlas Copco Heat exchangers 1901-6186-84 1901 6186 84
1901619575 Atlas Copco Heat exchangers 1901-6195-75 1901 6195 75
1901620086 Atlas Copco Heat exchangers 1901-6200-86 1901 6200 86
1901620557 Atlas Copco Heat exchangers 1901-6205-57 1901 6205 57
1901620896 Atlas Copco Heat exchangers 1901-6208-96 1901 6208 96
1901902450 Atlas Copco Heat exchangers 1901-9024-50 1901 9024 50
1901902468 Atlas Copco Heat exchangers 1901-9024-68 1901 9024 68
1901903615 Atlas Copco Heat exchangers 1901-9036-15 1901 9036 15
1901903714 Atlas Copco Heat exchangers 1901-9037-14 1901 9037 14
1901950047 Atlas Copco Heat exchangers 1901-9500-47 1901 9500 47
1901950049 Atlas Copco Heat exchangers 1901-9500-49 1901 9500 49
1903619911 Atlas Copco Heat exchangers 1903-6199-11 1903 6199 11
1903630111 Atlas Copco Heat exchangers 1903-6301-11 1903 6301 11
1903630211 Atlas Copco Heat exchangers 1903-6302-11 1903 6302 11
2200902340 Atlas Copco Heat exchangers 2200-9023-40 2200 9023 40
2200902341 Atlas Copco Heat exchangers 2200-9023-41 2200 9023 41
2202709400 Atlas Copco Heat exchangers 2202-7094-00 2202 7094 00
2202709800 Atlas Copco Heat exchangers 2202-7098-00 2202 7098 00
2202725900 Atlas Copco Heat exchangers 2202-7259-00 2202 7259 00
2202801101 Atlas Copco Heat exchangers 2202-8011-01 2202 8011 01
2202815601 Atlas Copco Heat exchangers 2202-8156-01 2202 8156 01
2202815603 Atlas Copco Heat exchangers 2202-8156-03 2202 8156 03
2202815604 Atlas Copco Heat exchangers 2202-8156-04 2202 8156 04
2202830201 Atlas Copco Heat exchangers 2202-8302-01 2202 8302 01
2202847101 Atlas Copco Heat exchangers 2202-8471-01 2202 8471 01
2202854401 Atlas Copco Heat exchangers 2202-8544-01 2202 8544 01
2202858801 Atlas Copco Heat exchangers 2202-8588-01 2202 8588 01
2202858901 Atlas Copco Heat exchangers 2202-8589-01 2202 8589 01
2202897400 Atlas Copco Heat exchangers 2202-8974-00 2202 8974 00
2202897800 Atlas Copco Heat exchangers 2202-8978-00 2202 8978 00
2203040000 Atlas Copco Heat exchangers 2203-0400-00 2203 0400 00
2203067300 Atlas Copco Heat exchangers 2203-0673-00 2203 0673 00
2205153200 Atlas Copco Heat exchangers 2205-1532-00 2205 1532 00
2205433324 Atlas Copco Heat exchangers 2205-4333-24 2205 4333 24
2230003600 Atlas Copco Heat exchangers 2230-0036-00 2230 0036 00
2230003700 Atlas Copco Heat exchangers 2230-0037-00 2230 0037 00
2230003800 Atlas Copco Heat exchangers 2230-0038-00 2230 0038 00
2230003900 Atlas Copco Heat exchangers 2230-0039-00 2230 0039 00
2235273000 Atlas Copco Heat exchangers 2235-2730-00 2235 2730 00
2235371000 Atlas Copco Heat exchangers 2235-3710-00 2235 3710 00
2235371200 Atlas Copco Heat exchangers 2235-3712-00 2235 3712 00
2235522100 Atlas Copco Heat exchangers 2235-5221-00 2235 5221 00
2235522300 Atlas Copco Heat exchangers 2235-5223-00 2235 5223 00
2235522400 Atlas Copco Heat exchangers 2235-5224-00 2235 5224 00
2235522500 Atlas Copco Heat exchangers 2235-5225-00 2235 5225 00
2235526700 Atlas Copco Heat exchangers 2235-5267-00 2235 5267 00
2235537300 Atlas Copco Heat exchangers 2235-5373-00 2235 5373 00
2235567445 Atlas Copco Heat exchangers 2235-5674-45 2235 5674 45
2235576903 Atlas Copco Heat exchangers 2235-5769-03 2235 5769 03
2235587856 Atlas Copco Heat exchangers 2235-5878-56 2235 5878 56
2235587987 Atlas Copco Heat exchangers 2235-5879-87 2235 5879 87
2235649800 Atlas Copco Heat exchangers 2235-6498-00 2235 6498 00
2235673600 Atlas Copco Heat exchangers 2235-6736-00 2235 6736 00
2235693200 Atlas Copco Heat exchangers 2235-6932-00 2235 6932 00
2235789101 Atlas Copco Heat exchangers 2235-7891-01 2235 7891 01
2235789102 Atlas Copco Heat exchangers 2235-7891-02 2235 7891 02
2235789103 Atlas Copco Heat exchangers 2235-7891-03 2235 7891 03
2235789104 Atlas Copco Heat exchangers 2235-7891-04 2235 7891 04
2235791900 Atlas Copco Heat exchangers 2235-7919-00 2235 7919 00
2235999486 Atlas Copco Heat exchangers 2235-9994-86 2235 9994 86
2235999501 Atlas Copco Heat exchangers 2235-9995-01 2235 9995 01
2236002800 Atlas Copco Heat exchangers 2236-0028-00 2236 0028 00
2236004200 Atlas Copco Heat exchangers 2236-0042-00 2236 0042 00
2236012100 Atlas Copco Heat exchangers 2236-0121-00 2236 0121 00
2236033200 Atlas Copco Heat exchangers 2236-0332-00 2236 0332 00
2236033300 Atlas Copco Heat exchangers 2236-0333-00 2236 0333 00
2236055000 Atlas Copco Heat exchangers 2236-0550-00 2236 0550 00
2236066600 Atlas Copco Heat exchangers 2236-0666-00 2236 0666 00
2236068500 Atlas Copco Heat exchangers 2236-0685-00 2236 0685 00
2236102027 Atlas Copco Heat exchangers 2236-1020-27 2236 1020 27
2236102103 Atlas Copco Heat exchangers 2236-1021-03 2236 1021 03
2236102127 Atlas Copco Heat exchangers 2236-1021-27 2236 1021 27
2236109317 Atlas Copco Heat exchangers 2236-1093-17 2236 1093 17
2250581380 Atlas Copco Heat exchangers 2250-5813-80 2250 5813 80
2251690460 Atlas Copco Heat exchangers 2251-6904-60 2251 6904 60
2251808091 Atlas Copco Heat exchangers 2251-8080-91 2251 8080 91
2251808093 Atlas Copco Heat exchangers 2251-8080-93 2251 8080 93
2251808191 Atlas Copco Heat exchangers 2251-8081-91 2251 8081 91
2251808193 Atlas Copco Heat exchangers 2251-8081-93 2251 8081 93
2251815191 Atlas Copco Heat exchangers 2251-8151-91 2251 8151 91
2251815193 Atlas Copco Heat exchangers 2251-8151-93 2251 8151 93
2251815290 Atlas Copco Heat exchangers 2251-8152-90 2251 8152 90
2251815291 Atlas Copco Heat exchangers 2251-8152-91 2251 8152 91
2251815293 Atlas Copco Heat exchangers 2251-8152-93 2251 8152 93
2251817793 Atlas Copco Heat exchangers 2251-8177-93 2251 8177 93
2252641400 Atlas Copco Heat exchangers 2252-6414-00 2252 6414 00
2252677100 Atlas Copco Heat exchangers 2252-6771-00 2252 6771 00
2252689800 Atlas Copco Heat exchangers 2252-6898-00 2252 6898 00
2252715900 Atlas Copco Heat exchangers 2252-7159-00 2252 7159 00
2252715901 Atlas Copco Heat exchangers 2252-7159-01 2252 7159 01
2252734700 Atlas Copco Heat exchangers 2252-7347-00 2252 7347 00
2252734701 Atlas Copco Heat exchangers 2252-7347-01 2252 7347 01
2252984400 Atlas Copco Heat exchangers 2252-9844-00 2252 9844 00
2252984401 Atlas Copco Heat exchangers 2252-9844-01 2252 9844 01
2252989800 Atlas Copco Heat exchangers 2252-9898-00 2252 9898 00
2253440000 Atlas Copco Heat exchangers 2253-4400-00 2253 4400 00
2253841600 Atlas Copco Heat exchangers 2253-8416-00 2253 8416 00
2254074800 Atlas Copco Heat exchangers 2254-0748-00 2254 0748 00
2254208101 Atlas Copco Heat exchangers 2254-2081-01 2254 2081 01
2254673301 Atlas Copco Heat exchangers 2254-6733-01 2254 6733 01
2255026800 Atlas Copco Heat exchangers 2255-0268-00 2255 0268 00
2255072803 Atlas Copco Heat exchangers 2255-0728-03 2255 0728 03
2255072804 Atlas Copco Heat exchangers 2255-0728-04 2255 0728 04
2255072807 Atlas Copco Heat exchangers 2255-0728-07 2255 0728 07
2255073005 Atlas Copco Heat exchangers 2255-0730-05 2255 0730 05
2900068100 Atlas Copco Heat exchangers 2900-0681-00 2900 0681 00
2900202200 Atlas Copco Heat exchangers 2900-2022-00 2900 2022 00
2900202300 Atlas Copco Heat exchangers 2900-2023-00 2900 2023 00
2900202400 Atlas Copco Heat exchangers 2900-2024-00 2900 2024 00
2900202500 Atlas Copco Heat exchangers 2900-2025-00 2900 2025 00
2900207200 Atlas Copco Heat exchangers 2900-2072-00 2900 2072 00
2901024600 Atlas Copco Heat exchangers 2901-0246-00 2901 0246 00
2901091800 Atlas Copco Heat exchangers 2901-0918-00 2901 0918 00
2901111300 Atlas Copco Heat exchangers 2901-1113-00 2901 1113 00
2901111400 Atlas Copco Heat exchangers 2901-1114-00 2901 1114 00
2901115500 Atlas Copco Heat exchangers 2901-1155-00 2901 1155 00
2901186700 Atlas Copco Heat exchangers 2901-1867-00 2901 1867 00
2901186800 Atlas Copco Heat exchangers 2901-1868-00 2901 1868 00
2906001100 Atlas Copco Heat exchangers 2906-0011-00 2906 0011 00
2906009000 Atlas Copco Heat exchangers 2906-0090-00 2906 0090 00
2906011400 Atlas Copco Heat exchangers 2906-0114-00 2906 0114 00
2906013800 Atlas Copco Heat exchangers 2906-0138-00 2906 0138 00
2906015200 Atlas Copco Heat exchangers 2906-0152-00 2906 0152 00
2906027400 Atlas Copco Heat exchangers 2906-0274-00 2906 0274 00
2906900400 Atlas Copco Heat exchangers 2906-9004-00 2906 9004 00
2906900500 Atlas Copco Heat exchangers 2906-9005-00 2906 9005 00
2906902900 Atlas Copco Heat exchangers 2906-9029-00 2906 9029 00
2908009080 Atlas Copco Heat exchangers 2908-0090-80 2908 0090 80
2908013680 Atlas Copco Heat exchangers 2908-0136-80 2908 0136 80
2910019700 Atlas Copco Heat exchangers 2910-0197-00 2910 0197 00
2910019800 Atlas Copco Heat exchangers 2910-0198-00 2910 0198 00
2910019900 Atlas Copco Heat exchangers 2910-0199-00 2910 0199 00
2910020000 Atlas Copco Heat exchangers 2910-0200-00 2910 0200 00
2910020100 Atlas Copco Heat exchangers 2910-0201-00 2910 0201 00
2910020200 Atlas Copco Heat exchangers 2910-0202-00 2910 0202 00
2910500500 Atlas Copco Heat exchangers 2910-5005-00 2910 5005 00
2910501600 Atlas Copco Heat exchangers 2910-5016-00 2910 5016 00
2910502800 Atlas Copco Heat exchangers 2910-5028-00 2910 5028 00
2910504000 Atlas Copco Heat exchangers 2910-5040-00 2910 5040 00
2910504800 Atlas Copco Heat exchangers 2910-5048-00 2910 5048 00
2910505400 Atlas Copco Heat exchangers 2910-5054-00 2910 5054 00
2911008600 Atlas Copco Heat exchangers 2911-0086-00 2911 0086 00
2911008700 Atlas Copco Heat exchangers 2911-0087-00 2911 0087 00
2913135600 Atlas Copco Heat exchangers 2913-1356-00 2913 1356 00
2913145100 Atlas Copco Heat exchangers 2913-1451-00 2913 1451 00
2913146900 Atlas Copco Heat exchangers 2913-1469-00 2913 1469 00
2913163600 Atlas Copco Heat exchangers 2913-1636-00 2913 1636 00
2913168000 Atlas Copco Heat exchangers 2913-1680-00 2913 1680 00
2913178100 Atlas Copco Heat exchangers 2913-1781-00 2913 1781 00
2913212200 Atlas Copco Heat exchangers 2913-2122-00 2913 2122 00
2914146900 Atlas Copco Heat exchangers 2914-1469-00 2914 1469 00
2914712300 Atlas Copco Heat exchangers 2914-7123-00 2914 7123 00
2914713900 Atlas Copco Heat exchangers 2914-7139-00 2914 7139 00
2914732400 Atlas Copco Heat exchangers 2914-7324-00 2914 7324 00
2914738400 Atlas Copco Heat exchangers 2914-7384-00 2914 7384 00
2914774300 Atlas Copco Heat exchangers 2914-7743-00 2914 7743 00
2914774400 Atlas Copco Heat exchangers 2914-7744-00 2914 7744 00
2914774500 Atlas Copco Heat exchangers 2914-7745-00 2914 7745 00
2914825400 Atlas Copco Heat exchangers 2914-8254-00 2914 8254 00
2934998438 Atlas Copco Heat exchangers 2934-9984-38 2934 9984 38
2934998440 Atlas Copco Heat exchangers 2934-9984-40 2934 9984 40
3001530200 Atlas Copco Heat exchangers 3001-5302-00 3001 5302 00
3001530800 Atlas Copco Heat exchangers 3001-5308-00 3001 5308 00
3001531121 Atlas Copco Heat exchangers 3001-5311-21 3001 5311 21

Export Department
info@aircompressorstrade.com 

WhatsApp: +86 18080158435

For Genuine Original Atlas Copco “Spare Parts” Price and Availability in China, Please Submit a Quick RFQ, we will answer you soon!

    Full Name

    City

    Phone

    Company Name

    Detailed Shipping Add

    Quick RFQ, Pls provide P/N, compressors name plate, etc.

    Please attach 1 file up to 2MB if you have.

    Learn more about China Air Compressors SupplierChengdu Pudding Mechatronic Co.CPMC distribution network!

    Leave a Reply

    Your email address will not be published.

    error: Content is protected !!
    CPMC uses cookies to offer you a better browsing experience. By browsing this website, you agree to our use of cookies.